<gpx creator="Cyclotour.ca" version="1.1" xmlns:gpsies="http://www.gpsies.com/GPX/1/0" xmlns:xsi="http://www.w3.org/2001/XMLSchema-instance" xmlns="http://www.topografix.com/GPX/1/1" xsi:schemaLocation="http://www.topografix.com/GPX/1/1 http://www.topografix.com/GPX/1/1/gpx.xsd http://www.gpsies.com/GPX/1/0 http://www.gpsies.com/gpsies.xsd">
<trk>
<name>En remontant la Chaudière </name>
<trkseg>
<trkpt lat="46.586720000" lon="-71.211110000">
<ele>0</ele>
<time>2026-09-04T06:26:15Z</time>
</trkpt>
<trkpt lat="46.587250000" lon="-71.211540000">
<ele>0</ele>
<time>2026-09-04T06:26:16Z</time>
</trkpt>
<trkpt lat="46.587250000" lon="-71.211540000">
<ele>0</ele>
<time>2026-09-04T06:26:17Z</time>
</trkpt>
<trkpt lat="46.587420000" lon="-71.211690000">
<ele>0</ele>
<time>2026-09-04T06:26:18Z</time>
</trkpt>
<trkpt lat="46.587340000" lon="-71.211920000">
<ele>0</ele>
<time>2026-09-04T06:26:19Z</time>
</trkpt>
<trkpt lat="46.587340000" lon="-71.211920000">
<ele>0</ele>
<time>2026-09-04T06:26:20Z</time>
</trkpt>
<trkpt lat="46.586940000" lon="-71.213010000">
<ele>0</ele>
<time>2026-09-04T06:26:21Z</time>
</trkpt>
<trkpt lat="46.586700000" lon="-71.213640000">
<ele>0</ele>
<time>2026-09-04T06:26:22Z</time>
</trkpt>
<trkpt lat="46.586040000" lon="-71.215440000">
<ele>0</ele>
<time>2026-09-04T06:26:23Z</time>
</trkpt>
<trkpt lat="46.585790000" lon="-71.216200000">
<ele>0</ele>
<time>2026-09-04T06:26:24Z</time>
</trkpt>
<trkpt lat="46.585610000" lon="-71.216730000">
<ele>0</ele>
<time>2026-09-04T06:26:25Z</time>
</trkpt>
<trkpt lat="46.585530000" lon="-71.216940000">
<ele>0</ele>
<time>2026-09-04T06:26:26Z</time>
</trkpt>
<trkpt lat="46.585320000" lon="-71.217290000">
<ele>0</ele>
<time>2026-09-04T06:26:27Z</time>
</trkpt>
<trkpt lat="46.585120000" lon="-71.217140000">
<ele>0</ele>
<time>2026-09-04T06:26:28Z</time>
</trkpt>
<trkpt lat="46.585120000" lon="-71.217140000">
<ele>0</ele>
<time>2026-09-04T06:26:29Z</time>
</trkpt>
<trkpt lat="46.584640000" lon="-71.216810000">
<ele>0</ele>
<time>2026-09-04T06:26:30Z</time>
</trkpt>
<trkpt lat="46.583800000" lon="-71.216230000">
<ele>0</ele>
<time>2026-09-04T06:26:31Z</time>
</trkpt>
<trkpt lat="46.583300000" lon="-71.215880000">
<ele>0</ele>
<time>2026-09-04T06:26:32Z</time>
</trkpt>
<trkpt lat="46.582740000" lon="-71.215540000">
<ele>0</ele>
<time>2026-09-04T06:26:33Z</time>
</trkpt>
<trkpt lat="46.581850000" lon="-71.214980000">
<ele>0</ele>
<time>2026-09-04T06:26:34Z</time>
</trkpt>
<trkpt lat="46.581340000" lon="-71.214690000">
<ele>0</ele>
<time>2026-09-04T06:26:35Z</time>
</trkpt>
<trkpt lat="46.581130000" lon="-71.214610000">
<ele>0</ele>
<time>2026-09-04T06:26:36Z</time>
</trkpt>
<trkpt lat="46.580760000" lon="-71.214500000">
<ele>0</ele>
<time>2026-09-04T06:26:37Z</time>
</trkpt>
<trkpt lat="46.580310000" lon="-71.214460000">
<ele>0</ele>
<time>2026-09-04T06:26:38Z</time>
</trkpt>
<trkpt lat="46.580080000" lon="-71.214480000">
<ele>0</ele>
<time>2026-09-04T06:26:39Z</time>
</trkpt>
<trkpt lat="46.579030000" lon="-71.214740000">
<ele>0</ele>
<time>2026-09-04T06:26:40Z</time>
</trkpt>
<trkpt lat="46.578200000" lon="-71.214950000">
<ele>0</ele>
<time>2026-09-04T06:26:41Z</time>
</trkpt>
<trkpt lat="46.577760000" lon="-71.215020000">
<ele>0</ele>
<time>2026-09-04T06:26:42Z</time>
</trkpt>
<trkpt lat="46.577480000" lon="-71.215050000">
<ele>0</ele>
<time>2026-09-04T06:26:43Z</time>
</trkpt>
<trkpt lat="46.577160000" lon="-71.215040000">
<ele>0</ele>
<time>2026-09-04T06:26:44Z</time>
</trkpt>
<trkpt lat="46.576610000" lon="-71.214970000">
<ele>0</ele>
<time>2026-09-04T06:26:45Z</time>
</trkpt>
<trkpt lat="46.575910000" lon="-71.214800000">
<ele>0</ele>
<time>2026-09-04T06:26:46Z</time>
</trkpt>
<trkpt lat="46.574810000" lon="-71.214590000">
<ele>0</ele>
<time>2026-09-04T06:26:47Z</time>
</trkpt>
<trkpt lat="46.573970000" lon="-71.214450000">
<ele>0</ele>
<time>2026-09-04T06:26:48Z</time>
</trkpt>
<trkpt lat="46.573320000" lon="-71.214290000">
<ele>0</ele>
<time>2026-09-04T06:26:49Z</time>
</trkpt>
<trkpt lat="46.573170000" lon="-71.214250000">
<ele>0</ele>
<time>2026-09-04T06:26:50Z</time>
</trkpt>
<trkpt lat="46.572270000" lon="-71.213840000">
<ele>0</ele>
<time>2026-09-04T06:26:51Z</time>
</trkpt>
<trkpt lat="46.571460000" lon="-71.213440000">
<ele>0</ele>
<time>2026-09-04T06:26:52Z</time>
</trkpt>
<trkpt lat="46.570560000" lon="-71.213010000">
<ele>0</ele>
<time>2026-09-04T06:26:53Z</time>
</trkpt>
<trkpt lat="46.570180000" lon="-71.212880000">
<ele>0</ele>
<time>2026-09-04T06:26:54Z</time>
</trkpt>
<trkpt lat="46.570000000" lon="-71.212840000">
<ele>0</ele>
<time>2026-09-04T06:26:55Z</time>
</trkpt>
<trkpt lat="46.569650000" lon="-71.212780000">
<ele>0</ele>
<time>2026-09-04T06:26:56Z</time>
</trkpt>
<trkpt lat="46.569260000" lon="-71.212750000">
<ele>0</ele>
<time>2026-09-04T06:26:57Z</time>
</trkpt>
<trkpt lat="46.568640000" lon="-71.212760000">
<ele>0</ele>
<time>2026-09-04T06:26:58Z</time>
</trkpt>
<trkpt lat="46.567630000" lon="-71.212760000">
<ele>0</ele>
<time>2026-09-04T06:26:59Z</time>
</trkpt>
<trkpt lat="46.567280000" lon="-71.212710000">
<ele>0</ele>
<time>2026-09-04T06:27:00Z</time>
</trkpt>
<trkpt lat="46.566950000" lon="-71.212620000">
<ele>0</ele>
<time>2026-09-04T06:27:01Z</time>
</trkpt>
<trkpt lat="46.566750000" lon="-71.212540000">
<ele>0</ele>
<time>2026-09-04T06:27:02Z</time>
</trkpt>
<trkpt lat="46.566050000" lon="-71.212180000">
<ele>0</ele>
<time>2026-09-04T06:27:03Z</time>
</trkpt>
<trkpt lat="46.564290000" lon="-71.211290000">
<ele>0</ele>
<time>2026-09-04T06:27:04Z</time>
</trkpt>
<trkpt lat="46.563550000" lon="-71.210890000">
<ele>0</ele>
<time>2026-09-04T06:27:05Z</time>
</trkpt>
<trkpt lat="46.563340000" lon="-71.210730000">
<ele>0</ele>
<time>2026-09-04T06:27:06Z</time>
</trkpt>
<trkpt lat="46.562870000" lon="-71.210250000">
<ele>0</ele>
<time>2026-09-04T06:27:07Z</time>
</trkpt>
<trkpt lat="46.562320000" lon="-71.209530000">
<ele>0</ele>
<time>2026-09-04T06:27:08Z</time>
</trkpt>
<trkpt lat="46.561870000" lon="-71.208910000">
<ele>0</ele>
<time>2026-09-04T06:27:09Z</time>
</trkpt>
<trkpt lat="46.561520000" lon="-71.208480000">
<ele>0</ele>
<time>2026-09-04T06:27:10Z</time>
</trkpt>
<trkpt lat="46.561170000" lon="-71.208030000">
<ele>0</ele>
<time>2026-09-04T06:27:11Z</time>
</trkpt>
<trkpt lat="46.561170000" lon="-71.208030000">
<ele>0</ele>
<time>2026-09-04T06:27:12Z</time>
</trkpt>
<trkpt lat="46.559540000" lon="-71.205950000">
<ele>0</ele>
<time>2026-09-04T06:27:13Z</time>
</trkpt>
<trkpt lat="46.559130000" lon="-71.205480000">
<ele>0</ele>
<time>2026-09-04T06:27:14Z</time>
</trkpt>
<trkpt lat="46.558170000" lon="-71.204540000">
<ele>0</ele>
<time>2026-09-04T06:27:15Z</time>
</trkpt>
<trkpt lat="46.555290000" lon="-71.201970000">
<ele>0</ele>
<time>2026-09-04T06:27:16Z</time>
</trkpt>
<trkpt lat="46.554480000" lon="-71.201180000">
<ele>0</ele>
<time>2026-09-04T06:27:17Z</time>
</trkpt>
<trkpt lat="46.554140000" lon="-71.200730000">
<ele>0</ele>
<time>2026-09-04T06:27:18Z</time>
</trkpt>
<trkpt lat="46.553870000" lon="-71.200260000">
<ele>0</ele>
<time>2026-09-04T06:27:19Z</time>
</trkpt>
<trkpt lat="46.553470000" lon="-71.199520000">
<ele>0</ele>
<time>2026-09-04T06:27:20Z</time>
</trkpt>
<trkpt lat="46.553160000" lon="-71.198880000">
<ele>0</ele>
<time>2026-09-04T06:27:21Z</time>
</trkpt>
<trkpt lat="46.552620000" lon="-71.197720000">
<ele>0</ele>
<time>2026-09-04T06:27:22Z</time>
</trkpt>
<trkpt lat="46.550430000" lon="-71.192280000">
<ele>0</ele>
<time>2026-09-04T06:27:23Z</time>
</trkpt>
<trkpt lat="46.549850000" lon="-71.190780000">
<ele>0</ele>
<time>2026-09-04T06:27:24Z</time>
</trkpt>
<trkpt lat="46.549290000" lon="-71.189260000">
<ele>0</ele>
<time>2026-09-04T06:27:25Z</time>
</trkpt>
<trkpt lat="46.548840000" lon="-71.187760000">
<ele>0</ele>
<time>2026-09-04T06:27:26Z</time>
</trkpt>
<trkpt lat="46.548490000" lon="-71.186510000">
<ele>0</ele>
<time>2026-09-04T06:27:27Z</time>
</trkpt>
<trkpt lat="46.547930000" lon="-71.184590000">
<ele>0</ele>
<time>2026-09-04T06:27:28Z</time>
</trkpt>
<trkpt lat="46.547770000" lon="-71.183890000">
<ele>0</ele>
<time>2026-09-04T06:27:29Z</time>
</trkpt>
<trkpt lat="46.547710000" lon="-71.183480000">
<ele>0</ele>
<time>2026-09-04T06:27:30Z</time>
</trkpt>
<trkpt lat="46.547680000" lon="-71.182640000">
<ele>0</ele>
<time>2026-09-04T06:27:31Z</time>
</trkpt>
<trkpt lat="46.547660000" lon="-71.181440000">
<ele>0</ele>
<time>2026-09-04T06:27:32Z</time>
</trkpt>
<trkpt lat="46.547630000" lon="-71.180660000">
<ele>0</ele>
<time>2026-09-04T06:27:33Z</time>
</trkpt>
<trkpt lat="46.547590000" lon="-71.180090000">
<ele>0</ele>
<time>2026-09-04T06:27:34Z</time>
</trkpt>
<trkpt lat="46.547400000" lon="-71.178470000">
<ele>0</ele>
<time>2026-09-04T06:27:35Z</time>
</trkpt>
<trkpt lat="46.547120000" lon="-71.176210000">
<ele>0</ele>
<time>2026-09-04T06:27:36Z</time>
</trkpt>
<trkpt lat="46.547000000" lon="-71.175330000">
<ele>0</ele>
<time>2026-09-04T06:27:37Z</time>
</trkpt>
<trkpt lat="46.546940000" lon="-71.174500000">
<ele>0</ele>
<time>2026-09-04T06:27:38Z</time>
</trkpt>
<trkpt lat="46.546940000" lon="-71.174130000">
<ele>0</ele>
<time>2026-09-04T06:27:39Z</time>
</trkpt>
<trkpt lat="46.546960000" lon="-71.173810000">
<ele>0</ele>
<time>2026-09-04T06:27:40Z</time>
</trkpt>
<trkpt lat="46.547040000" lon="-71.173230000">
<ele>0</ele>
<time>2026-09-04T06:27:41Z</time>
</trkpt>
<trkpt lat="46.547240000" lon="-71.172140000">
<ele>0</ele>
<time>2026-09-04T06:27:42Z</time>
</trkpt>
<trkpt lat="46.547340000" lon="-71.171300000">
<ele>0</ele>
<time>2026-09-04T06:27:43Z</time>
</trkpt>
<trkpt lat="46.547390000" lon="-71.170390000">
<ele>0</ele>
<time>2026-09-04T06:27:44Z</time>
</trkpt>
<trkpt lat="46.547400000" lon="-71.169250000">
<ele>0</ele>
<time>2026-09-04T06:27:45Z</time>
</trkpt>
<trkpt lat="46.547380000" lon="-71.168030000">
<ele>0</ele>
<time>2026-09-04T06:27:46Z</time>
</trkpt>
<trkpt lat="46.547270000" lon="-71.167140000">
<ele>0</ele>
<time>2026-09-04T06:27:47Z</time>
</trkpt>
<trkpt lat="46.547130000" lon="-71.166510000">
<ele>0</ele>
<time>2026-09-04T06:27:48Z</time>
</trkpt>
<trkpt lat="46.546730000" lon="-71.165070000">
<ele>0</ele>
<time>2026-09-04T06:27:49Z</time>
</trkpt>
<trkpt lat="46.546390000" lon="-71.163840000">
<ele>0</ele>
<time>2026-09-04T06:27:50Z</time>
</trkpt>
<trkpt lat="46.545990000" lon="-71.162410000">
<ele>0</ele>
<time>2026-09-04T06:27:51Z</time>
</trkpt>
<trkpt lat="46.545300000" lon="-71.159960000">
<ele>0</ele>
<time>2026-09-04T06:27:52Z</time>
</trkpt>
<trkpt lat="46.545150000" lon="-71.159520000">
<ele>0</ele>
<time>2026-09-04T06:27:53Z</time>
</trkpt>
<trkpt lat="46.545020000" lon="-71.159230000">
<ele>0</ele>
<time>2026-09-04T06:27:54Z</time>
</trkpt>
<trkpt lat="46.544850000" lon="-71.158900000">
<ele>0</ele>
<time>2026-09-04T06:27:55Z</time>
</trkpt>
<trkpt lat="46.544510000" lon="-71.158390000">
<ele>0</ele>
<time>2026-09-04T06:27:56Z</time>
</trkpt>
<trkpt lat="46.543160000" lon="-71.156490000">
<ele>0</ele>
<time>2026-09-04T06:27:57Z</time>
</trkpt>
<trkpt lat="46.542560000" lon="-71.155750000">
<ele>0</ele>
<time>2026-09-04T06:27:58Z</time>
</trkpt>
<trkpt lat="46.542300000" lon="-71.155500000">
<ele>0</ele>
<time>2026-09-04T06:27:59Z</time>
</trkpt>
<trkpt lat="46.541870000" lon="-71.155150000">
<ele>0</ele>
<time>2026-09-04T06:28:00Z</time>
</trkpt>
<trkpt lat="46.541470000" lon="-71.154900000">
<ele>0</ele>
<time>2026-09-04T06:28:01Z</time>
</trkpt>
<trkpt lat="46.541060000" lon="-71.154710000">
<ele>0</ele>
<time>2026-09-04T06:28:02Z</time>
</trkpt>
<trkpt lat="46.540490000" lon="-71.154560000">
<ele>0</ele>
<time>2026-09-04T06:28:03Z</time>
</trkpt>
<trkpt lat="46.540150000" lon="-71.154520000">
<ele>0</ele>
<time>2026-09-04T06:28:04Z</time>
</trkpt>
<trkpt lat="46.538840000" lon="-71.154540000">
<ele>0</ele>
<time>2026-09-04T06:28:05Z</time>
</trkpt>
<trkpt lat="46.538330000" lon="-71.154510000">
<ele>0</ele>
<time>2026-09-04T06:28:06Z</time>
</trkpt>
<trkpt lat="46.538070000" lon="-71.154450000">
<ele>0</ele>
<time>2026-09-04T06:28:07Z</time>
</trkpt>
<trkpt lat="46.537810000" lon="-71.154340000">
<ele>0</ele>
<time>2026-09-04T06:28:08Z</time>
</trkpt>
<trkpt lat="46.537030000" lon="-71.153930000">
<ele>0</ele>
<time>2026-09-04T06:28:09Z</time>
</trkpt>
<trkpt lat="46.536180000" lon="-71.153410000">
<ele>0</ele>
<time>2026-09-04T06:28:10Z</time>
</trkpt>
<trkpt lat="46.535640000" lon="-71.153050000">
<ele>0</ele>
<time>2026-09-04T06:28:11Z</time>
</trkpt>
<trkpt lat="46.535400000" lon="-71.152890000">
<ele>0</ele>
<time>2026-09-04T06:28:12Z</time>
</trkpt>
<trkpt lat="46.535160000" lon="-71.152680000">
<ele>0</ele>
<time>2026-09-04T06:28:13Z</time>
</trkpt>
<trkpt lat="46.534790000" lon="-71.152260000">
<ele>0</ele>
<time>2026-09-04T06:28:14Z</time>
</trkpt>
<trkpt lat="46.534520000" lon="-71.151880000">
<ele>0</ele>
<time>2026-09-04T06:28:15Z</time>
</trkpt>
<trkpt lat="46.534380000" lon="-71.151610000">
<ele>0</ele>
<time>2026-09-04T06:28:16Z</time>
</trkpt>
<trkpt lat="46.534210000" lon="-71.151240000">
<ele>0</ele>
<time>2026-09-04T06:28:17Z</time>
</trkpt>
<trkpt lat="46.533990000" lon="-71.150620000">
<ele>0</ele>
<time>2026-09-04T06:28:18Z</time>
</trkpt>
<trkpt lat="46.533620000" lon="-71.149060000">
<ele>0</ele>
<time>2026-09-04T06:28:19Z</time>
</trkpt>
<trkpt lat="46.532980000" lon="-71.146380000">
<ele>0</ele>
<time>2026-09-04T06:28:20Z</time>
</trkpt>
<trkpt lat="46.532390000" lon="-71.143950000">
<ele>0</ele>
<time>2026-09-04T06:28:21Z</time>
</trkpt>
<trkpt lat="46.532140000" lon="-71.143090000">
<ele>0</ele>
<time>2026-09-04T06:28:22Z</time>
</trkpt>
<trkpt lat="46.531970000" lon="-71.142580000">
<ele>0</ele>
<time>2026-09-04T06:28:23Z</time>
</trkpt>
<trkpt lat="46.531630000" lon="-71.141800000">
<ele>0</ele>
<time>2026-09-04T06:28:24Z</time>
</trkpt>
<trkpt lat="46.531380000" lon="-71.141240000">
<ele>0</ele>
<time>2026-09-04T06:28:25Z</time>
</trkpt>
<trkpt lat="46.530980000" lon="-71.140520000">
<ele>0</ele>
<time>2026-09-04T06:28:26Z</time>
</trkpt>
<trkpt lat="46.530680000" lon="-71.140060000">
<ele>0</ele>
<time>2026-09-04T06:28:27Z</time>
</trkpt>
<trkpt lat="46.529770000" lon="-71.138800000">
<ele>0</ele>
<time>2026-09-04T06:28:28Z</time>
</trkpt>
<trkpt lat="46.529250000" lon="-71.138120000">
<ele>0</ele>
<time>2026-09-04T06:28:29Z</time>
</trkpt>
<trkpt lat="46.527500000" lon="-71.135800000">
<ele>0</ele>
<time>2026-09-04T06:28:30Z</time>
</trkpt>
<trkpt lat="46.526780000" lon="-71.134820000">
<ele>0</ele>
<time>2026-09-04T06:28:31Z</time>
</trkpt>
<trkpt lat="46.525830000" lon="-71.133580000">
<ele>0</ele>
<time>2026-09-04T06:28:32Z</time>
</trkpt>
<trkpt lat="46.525700000" lon="-71.133410000">
<ele>0</ele>
<time>2026-09-04T06:28:33Z</time>
</trkpt>
<trkpt lat="46.525700000" lon="-71.133410000">
<ele>0</ele>
<time>2026-09-04T06:28:34Z</time>
</trkpt>
<trkpt lat="46.521990000" lon="-71.128470000">
<ele>0</ele>
<time>2026-09-04T06:28:35Z</time>
</trkpt>
<trkpt lat="46.520380000" lon="-71.126350000">
<ele>0</ele>
<time>2026-09-04T06:28:36Z</time>
</trkpt>
<trkpt lat="46.515870000" lon="-71.120410000">
<ele>0</ele>
<time>2026-09-04T06:28:37Z</time>
</trkpt>
<trkpt lat="46.515020000" lon="-71.119230000">
<ele>0</ele>
<time>2026-09-04T06:28:38Z</time>
</trkpt>
<trkpt lat="46.514620000" lon="-71.118730000">
<ele>0</ele>
<time>2026-09-04T06:28:39Z</time>
</trkpt>
<trkpt lat="46.513680000" lon="-71.117520000">
<ele>0</ele>
<time>2026-09-04T06:28:40Z</time>
</trkpt>
<trkpt lat="46.512900000" lon="-71.116410000">
<ele>0</ele>
<time>2026-09-04T06:28:41Z</time>
</trkpt>
<trkpt lat="46.510720000" lon="-71.113270000">
<ele>0</ele>
<time>2026-09-04T06:28:42Z</time>
</trkpt>
<trkpt lat="46.509870000" lon="-71.112100000">
<ele>0</ele>
<time>2026-09-04T06:28:43Z</time>
</trkpt>
<trkpt lat="46.509120000" lon="-71.111240000">
<ele>0</ele>
<time>2026-09-04T06:28:44Z</time>
</trkpt>
<trkpt lat="46.508130000" lon="-71.110280000">
<ele>0</ele>
<time>2026-09-04T06:28:45Z</time>
</trkpt>
<trkpt lat="46.507250000" lon="-71.109420000">
<ele>0</ele>
<time>2026-09-04T06:28:46Z</time>
</trkpt>
<trkpt lat="46.506960000" lon="-71.109090000">
<ele>0</ele>
<time>2026-09-04T06:28:47Z</time>
</trkpt>
<trkpt lat="46.505930000" lon="-71.107710000">
<ele>0</ele>
<time>2026-09-04T06:28:48Z</time>
</trkpt>
<trkpt lat="46.504610000" lon="-71.105930000">
<ele>0</ele>
<time>2026-09-04T06:28:49Z</time>
</trkpt>
<trkpt lat="46.502700000" lon="-71.103330000">
<ele>0</ele>
<time>2026-09-04T06:28:50Z</time>
</trkpt>
<trkpt lat="46.502250000" lon="-71.102700000">
<ele>0</ele>
<time>2026-09-04T06:28:51Z</time>
</trkpt>
<trkpt lat="46.501810000" lon="-71.102080000">
<ele>0</ele>
<time>2026-09-04T06:28:52Z</time>
</trkpt>
<trkpt lat="46.501350000" lon="-71.101280000">
<ele>0</ele>
<time>2026-09-04T06:28:53Z</time>
</trkpt>
<trkpt lat="46.501150000" lon="-71.100880000">
<ele>0</ele>
<time>2026-09-04T06:28:54Z</time>
</trkpt>
<trkpt lat="46.500950000" lon="-71.100430000">
<ele>0</ele>
<time>2026-09-04T06:28:55Z</time>
</trkpt>
<trkpt lat="46.500560000" lon="-71.099420000">
<ele>0</ele>
<time>2026-09-04T06:28:56Z</time>
</trkpt>
<trkpt lat="46.500500000" lon="-71.099240000">
<ele>0</ele>
<time>2026-09-04T06:28:57Z</time>
</trkpt>
<trkpt lat="46.500230000" lon="-71.098260000">
<ele>0</ele>
<time>2026-09-04T06:28:58Z</time>
</trkpt>
<trkpt lat="46.500040000" lon="-71.097370000">
<ele>0</ele>
<time>2026-09-04T06:28:59Z</time>
</trkpt>
<trkpt lat="46.499810000" lon="-71.096040000">
<ele>0</ele>
<time>2026-09-04T06:29:00Z</time>
</trkpt>
<trkpt lat="46.499540000" lon="-71.094220000">
<ele>0</ele>
<time>2026-09-04T06:29:01Z</time>
</trkpt>
<trkpt lat="46.499290000" lon="-71.093000000">
<ele>0</ele>
<time>2026-09-04T06:29:02Z</time>
</trkpt>
<trkpt lat="46.499040000" lon="-71.092010000">
<ele>0</ele>
<time>2026-09-04T06:29:03Z</time>
</trkpt>
<trkpt lat="46.498420000" lon="-71.089810000">
<ele>0</ele>
<time>2026-09-04T06:29:04Z</time>
</trkpt>
<trkpt lat="46.497570000" lon="-71.087280000">
<ele>0</ele>
<time>2026-09-04T06:29:05Z</time>
</trkpt>
<trkpt lat="46.497400000" lon="-71.086770000">
<ele>0</ele>
<time>2026-09-04T06:29:06Z</time>
</trkpt>
<trkpt lat="46.497280000" lon="-71.086320000">
<ele>0</ele>
<time>2026-09-04T06:29:07Z</time>
</trkpt>
<trkpt lat="46.497180000" lon="-71.085760000">
<ele>0</ele>
<time>2026-09-04T06:29:08Z</time>
</trkpt>
<trkpt lat="46.497140000" lon="-71.085280000">
<ele>0</ele>
<time>2026-09-04T06:29:09Z</time>
</trkpt>
<trkpt lat="46.497140000" lon="-71.084800000">
<ele>0</ele>
<time>2026-09-04T06:29:10Z</time>
</trkpt>
<trkpt lat="46.497180000" lon="-71.084190000">
<ele>0</ele>
<time>2026-09-04T06:29:11Z</time>
</trkpt>
<trkpt lat="46.497350000" lon="-71.081500000">
<ele>0</ele>
<time>2026-09-04T06:29:12Z</time>
</trkpt>
<trkpt lat="46.497480000" lon="-71.079520000">
<ele>0</ele>
<time>2026-09-04T06:29:13Z</time>
</trkpt>
<trkpt lat="46.497780000" lon="-71.078630000">
<ele>0</ele>
<time>2026-09-04T06:29:14Z</time>
</trkpt>
<trkpt lat="46.498060000" lon="-71.077900000">
<ele>0</ele>
<time>2026-09-04T06:29:15Z</time>
</trkpt>
<trkpt lat="46.498380000" lon="-71.077320000">
<ele>0</ele>
<time>2026-09-04T06:29:16Z</time>
</trkpt>
<trkpt lat="46.498510000" lon="-71.077110000">
<ele>0</ele>
<time>2026-09-04T06:29:17Z</time>
</trkpt>
<trkpt lat="46.498810000" lon="-71.076690000">
<ele>0</ele>
<time>2026-09-04T06:29:18Z</time>
</trkpt>
<trkpt lat="46.499140000" lon="-71.076330000">
<ele>0</ele>
<time>2026-09-04T06:29:19Z</time>
</trkpt>
<trkpt lat="46.499250000" lon="-71.076230000">
<ele>0</ele>
<time>2026-09-04T06:29:20Z</time>
</trkpt>
<trkpt lat="46.499250000" lon="-71.076230000">
<ele>0</ele>
<time>2026-09-04T06:29:21Z</time>
</trkpt>
<trkpt lat="46.499500000" lon="-71.076020000">
<ele>0</ele>
<time>2026-09-04T06:29:22Z</time>
</trkpt>
<trkpt lat="46.500300000" lon="-71.075520000">
<ele>0</ele>
<time>2026-09-04T06:29:23Z</time>
</trkpt>
<trkpt lat="46.500390000" lon="-71.075460000">
<ele>0</ele>
<time>2026-09-04T06:29:24Z</time>
</trkpt>
<trkpt lat="46.500390000" lon="-71.075460000">
<ele>0</ele>
<time>2026-09-04T06:29:25Z</time>
</trkpt>
<trkpt lat="46.499500000" lon="-71.076020000">
<ele>0</ele>
<time>2026-09-04T06:29:26Z</time>
</trkpt>
<trkpt lat="46.499170000" lon="-71.076150000">
<ele>0</ele>
<time>2026-09-04T06:29:27Z</time>
</trkpt>
<trkpt lat="46.498850000" lon="-71.076310000">
<ele>0</ele>
<time>2026-09-04T06:29:28Z</time>
</trkpt>
<trkpt lat="46.498850000" lon="-71.076310000">
<ele>0</ele>
<time>2026-09-04T06:29:29Z</time>
</trkpt>
<trkpt lat="46.498260000" lon="-71.076600000">
<ele>0</ele>
<time>2026-09-04T06:29:30Z</time>
</trkpt>
<trkpt lat="46.498040000" lon="-71.076690000">
<ele>0</ele>
<time>2026-09-04T06:29:31Z</time>
</trkpt>
<trkpt lat="46.497860000" lon="-71.076730000">
<ele>0</ele>
<time>2026-09-04T06:29:32Z</time>
</trkpt>
<trkpt lat="46.497640000" lon="-71.076780000">
<ele>0</ele>
<time>2026-09-04T06:29:33Z</time>
</trkpt>
<trkpt lat="46.497450000" lon="-71.076770000">
<ele>0</ele>
<time>2026-09-04T06:29:34Z</time>
</trkpt>
<trkpt lat="46.496380000" lon="-71.076490000">
<ele>0</ele>
<time>2026-09-04T06:29:35Z</time>
</trkpt>
<trkpt lat="46.493480000" lon="-71.075590000">
<ele>0</ele>
<time>2026-09-04T06:29:36Z</time>
</trkpt>
<trkpt lat="46.491180000" lon="-71.074840000">
<ele>0</ele>
<time>2026-09-04T06:29:37Z</time>
</trkpt>
<trkpt lat="46.490270000" lon="-71.074590000">
<ele>0</ele>
<time>2026-09-04T06:29:38Z</time>
</trkpt>
<trkpt lat="46.489910000" lon="-71.074550000">
<ele>0</ele>
<time>2026-09-04T06:29:39Z</time>
</trkpt>
<trkpt lat="46.489460000" lon="-71.074520000">
<ele>0</ele>
<time>2026-09-04T06:29:40Z</time>
</trkpt>
<trkpt lat="46.488300000" lon="-71.074600000">
<ele>0</ele>
<time>2026-09-04T06:29:41Z</time>
</trkpt>
<trkpt lat="46.487580000" lon="-71.074630000">
<ele>0</ele>
<time>2026-09-04T06:29:42Z</time>
</trkpt>
<trkpt lat="46.487310000" lon="-71.074630000">
<ele>0</ele>
<time>2026-09-04T06:29:43Z</time>
</trkpt>
<trkpt lat="46.486860000" lon="-71.074580000">
<ele>0</ele>
<time>2026-09-04T06:29:44Z</time>
</trkpt>
<trkpt lat="46.485250000" lon="-71.074310000">
<ele>0</ele>
<time>2026-09-04T06:29:45Z</time>
</trkpt>
<trkpt lat="46.484670000" lon="-71.074210000">
<ele>0</ele>
<time>2026-09-04T06:29:46Z</time>
</trkpt>
<trkpt lat="46.484360000" lon="-71.074130000">
<ele>0</ele>
<time>2026-09-04T06:29:47Z</time>
</trkpt>
<trkpt lat="46.484200000" lon="-71.074070000">
<ele>0</ele>
<time>2026-09-04T06:29:48Z</time>
</trkpt>
<trkpt lat="46.483850000" lon="-71.073890000">
<ele>0</ele>
<time>2026-09-04T06:29:49Z</time>
</trkpt>
<trkpt lat="46.483430000" lon="-71.073650000">
<ele>0</ele>
<time>2026-09-04T06:29:50Z</time>
</trkpt>
<trkpt lat="46.482210000" lon="-71.072810000">
<ele>0</ele>
<time>2026-09-04T06:29:51Z</time>
</trkpt>
<trkpt lat="46.480910000" lon="-71.071910000">
<ele>0</ele>
<time>2026-09-04T06:29:52Z</time>
</trkpt>
<trkpt lat="46.480360000" lon="-71.071520000">
<ele>0</ele>
<time>2026-09-04T06:29:53Z</time>
</trkpt>
<trkpt lat="46.479310000" lon="-71.070710000">
<ele>0</ele>
<time>2026-09-04T06:29:54Z</time>
</trkpt>
<trkpt lat="46.477570000" lon="-71.069140000">
<ele>0</ele>
<time>2026-09-04T06:29:55Z</time>
</trkpt>
<trkpt lat="46.477150000" lon="-71.068800000">
<ele>0</ele>
<time>2026-09-04T06:29:56Z</time>
</trkpt>
<trkpt lat="46.477150000" lon="-71.068800000">
<ele>0</ele>
<time>2026-09-04T06:29:57Z</time>
</trkpt>
<trkpt lat="46.474760000" lon="-71.066820000">
<ele>0</ele>
<time>2026-09-04T06:29:58Z</time>
</trkpt>
<trkpt lat="46.474120000" lon="-71.066310000">
<ele>0</ele>
<time>2026-09-04T06:29:59Z</time>
</trkpt>
<trkpt lat="46.473650000" lon="-71.065980000">
<ele>0</ele>
<time>2026-09-04T06:30:00Z</time>
</trkpt>
<trkpt lat="46.473370000" lon="-71.065810000">
<ele>0</ele>
<time>2026-09-04T06:30:01Z</time>
</trkpt>
<trkpt lat="46.472990000" lon="-71.065610000">
<ele>0</ele>
<time>2026-09-04T06:30:02Z</time>
</trkpt>
<trkpt lat="46.472000000" lon="-71.065220000">
<ele>0</ele>
<time>2026-09-04T06:30:03Z</time>
</trkpt>
<trkpt lat="46.469380000" lon="-71.064190000">
<ele>0</ele>
<time>2026-09-04T06:30:04Z</time>
</trkpt>
<trkpt lat="46.469010000" lon="-71.064040000">
<ele>0</ele>
<time>2026-09-04T06:30:05Z</time>
</trkpt>
<trkpt lat="46.468650000" lon="-71.063830000">
<ele>0</ele>
<time>2026-09-04T06:30:06Z</time>
</trkpt>
<trkpt lat="46.468270000" lon="-71.063510000">
<ele>0</ele>
<time>2026-09-04T06:30:07Z</time>
</trkpt>
<trkpt lat="46.467930000" lon="-71.063100000">
<ele>0</ele>
<time>2026-09-04T06:30:08Z</time>
</trkpt>
<trkpt lat="46.467730000" lon="-71.062770000">
<ele>0</ele>
<time>2026-09-04T06:30:09Z</time>
</trkpt>
<trkpt lat="46.467360000" lon="-71.062020000">
<ele>0</ele>
<time>2026-09-04T06:30:10Z</time>
</trkpt>
<trkpt lat="46.467170000" lon="-71.061640000">
<ele>0</ele>
<time>2026-09-04T06:30:11Z</time>
</trkpt>
<trkpt lat="46.466950000" lon="-71.061250000">
<ele>0</ele>
<time>2026-09-04T06:30:12Z</time>
</trkpt>
<trkpt lat="46.466720000" lon="-71.060940000">
<ele>0</ele>
<time>2026-09-04T06:30:13Z</time>
</trkpt>
<trkpt lat="46.466110000" lon="-71.060350000">
<ele>0</ele>
<time>2026-09-04T06:30:14Z</time>
</trkpt>
<trkpt lat="46.465780000" lon="-71.060110000">
<ele>0</ele>
<time>2026-09-04T06:30:15Z</time>
</trkpt>
<trkpt lat="46.465430000" lon="-71.059950000">
<ele>0</ele>
<time>2026-09-04T06:30:16Z</time>
</trkpt>
<trkpt lat="46.463840000" lon="-71.059370000">
<ele>0</ele>
<time>2026-09-04T06:30:17Z</time>
</trkpt>
<trkpt lat="46.463200000" lon="-71.059110000">
<ele>0</ele>
<time>2026-09-04T06:30:18Z</time>
</trkpt>
<trkpt lat="46.461710000" lon="-71.058130000">
<ele>0</ele>
<time>2026-09-04T06:30:19Z</time>
</trkpt>
<trkpt lat="46.460470000" lon="-71.057290000">
<ele>0</ele>
<time>2026-09-04T06:30:20Z</time>
</trkpt>
<trkpt lat="46.457360000" lon="-71.055220000">
<ele>0</ele>
<time>2026-09-04T06:30:21Z</time>
</trkpt>
<trkpt lat="46.456630000" lon="-71.054700000">
<ele>0</ele>
<time>2026-09-04T06:30:22Z</time>
</trkpt>
<trkpt lat="46.456340000" lon="-71.054480000">
<ele>0</ele>
<time>2026-09-04T06:30:23Z</time>
</trkpt>
<trkpt lat="46.455780000" lon="-71.054010000">
<ele>0</ele>
<time>2026-09-04T06:30:24Z</time>
</trkpt>
<trkpt lat="46.455290000" lon="-71.053550000">
<ele>0</ele>
<time>2026-09-04T06:30:25Z</time>
</trkpt>
<trkpt lat="46.454600000" lon="-71.052870000">
<ele>0</ele>
<time>2026-09-04T06:30:26Z</time>
</trkpt>
<trkpt lat="46.453610000" lon="-71.051740000">
<ele>0</ele>
<time>2026-09-04T06:30:27Z</time>
</trkpt>
<trkpt lat="46.452760000" lon="-71.050780000">
<ele>0</ele>
<time>2026-09-04T06:30:28Z</time>
</trkpt>
<trkpt lat="46.449640000" lon="-71.047230000">
<ele>0</ele>
<time>2026-09-04T06:30:29Z</time>
</trkpt>
<trkpt lat="46.448190000" lon="-71.045630000">
<ele>0</ele>
<time>2026-09-04T06:30:30Z</time>
</trkpt>
<trkpt lat="46.446130000" lon="-71.043470000">
<ele>0</ele>
<time>2026-09-04T06:30:31Z</time>
</trkpt>
<trkpt lat="46.444840000" lon="-71.042090000">
<ele>0</ele>
<time>2026-09-04T06:30:32Z</time>
</trkpt>
<trkpt lat="46.443710000" lon="-71.040880000">
<ele>0</ele>
<time>2026-09-04T06:30:33Z</time>
</trkpt>
<trkpt lat="46.443350000" lon="-71.040500000">
<ele>0</ele>
<time>2026-09-04T06:30:34Z</time>
</trkpt>
<trkpt lat="46.442730000" lon="-71.039720000">
<ele>0</ele>
<time>2026-09-04T06:30:35Z</time>
</trkpt>
<trkpt lat="46.441500000" lon="-71.038150000">
<ele>0</ele>
<time>2026-09-04T06:30:36Z</time>
</trkpt>
<trkpt lat="46.440860000" lon="-71.037290000">
<ele>0</ele>
<time>2026-09-04T06:30:37Z</time>
</trkpt>
<trkpt lat="46.440100000" lon="-71.036350000">
<ele>0</ele>
<time>2026-09-04T06:30:38Z</time>
</trkpt>
<trkpt lat="46.439460000" lon="-71.035760000">
<ele>0</ele>
<time>2026-09-04T06:30:39Z</time>
</trkpt>
<trkpt lat="46.438720000" lon="-71.035160000">
<ele>0</ele>
<time>2026-09-04T06:30:40Z</time>
</trkpt>
<trkpt lat="46.438210000" lon="-71.034750000">
<ele>0</ele>
<time>2026-09-04T06:30:41Z</time>
</trkpt>
<trkpt lat="46.437920000" lon="-71.034470000">
<ele>0</ele>
<time>2026-09-04T06:30:42Z</time>
</trkpt>
<trkpt lat="46.437680000" lon="-71.034220000">
<ele>0</ele>
<time>2026-09-04T06:30:43Z</time>
</trkpt>
<trkpt lat="46.435870000" lon="-71.031870000">
<ele>0</ele>
<time>2026-09-04T06:30:44Z</time>
</trkpt>
<trkpt lat="46.435270000" lon="-71.031060000">
<ele>0</ele>
<time>2026-09-04T06:30:45Z</time>
</trkpt>
<trkpt lat="46.434920000" lon="-71.030590000">
<ele>0</ele>
<time>2026-09-04T06:30:46Z</time>
</trkpt>
<trkpt lat="46.434440000" lon="-71.029840000">
<ele>0</ele>
<time>2026-09-04T06:30:47Z</time>
</trkpt>
<trkpt lat="46.434080000" lon="-71.029240000">
<ele>0</ele>
<time>2026-09-04T06:30:48Z</time>
</trkpt>
<trkpt lat="46.433460000" lon="-71.028280000">
<ele>0</ele>
<time>2026-09-04T06:30:49Z</time>
</trkpt>
<trkpt lat="46.433330000" lon="-71.028060000">
<ele>0</ele>
<time>2026-09-04T06:30:50Z</time>
</trkpt>
<trkpt lat="46.433330000" lon="-71.028060000">
<ele>0</ele>
<time>2026-09-04T06:30:51Z</time>
</trkpt>
<trkpt lat="46.432960000" lon="-71.027450000">
<ele>0</ele>
<time>2026-09-04T06:30:52Z</time>
</trkpt>
<trkpt lat="46.432700000" lon="-71.026970000">
<ele>0</ele>
<time>2026-09-04T06:30:53Z</time>
</trkpt>
<trkpt lat="46.432260000" lon="-71.026150000">
<ele>0</ele>
<time>2026-09-04T06:30:54Z</time>
</trkpt>
<trkpt lat="46.432040000" lon="-71.025740000">
<ele>0</ele>
<time>2026-09-04T06:30:55Z</time>
</trkpt>
<trkpt lat="46.432240000" lon="-71.025610000">
<ele>0</ele>
<time>2026-09-04T06:30:56Z</time>
</trkpt>
<trkpt lat="46.432240000" lon="-71.025610000">
<ele>0</ele>
<time>2026-09-04T06:30:57Z</time>
</trkpt>
<trkpt lat="46.432660000" lon="-71.025380000">
<ele>0</ele>
<time>2026-09-04T06:30:58Z</time>
</trkpt>
<trkpt lat="46.433440000" lon="-71.025110000">
<ele>0</ele>
<time>2026-09-04T06:30:59Z</time>
</trkpt>
<trkpt lat="46.434850000" lon="-71.024640000">
<ele>0</ele>
<time>2026-09-04T06:31:00Z</time>
</trkpt>
<trkpt lat="46.434850000" lon="-71.024640000">
<ele>0</ele>
<time>2026-09-04T06:31:01Z</time>
</trkpt>
<trkpt lat="46.435830000" lon="-71.024320000">
<ele>0</ele>
<time>2026-09-04T06:31:02Z</time>
</trkpt>
<trkpt lat="46.436350000" lon="-71.024110000">
<ele>0</ele>
<time>2026-09-04T06:31:03Z</time>
</trkpt>
<trkpt lat="46.436590000" lon="-71.023980000">
<ele>0</ele>
<time>2026-09-04T06:31:04Z</time>
</trkpt>
<trkpt lat="46.436810000" lon="-71.023830000">
<ele>0</ele>
<time>2026-09-04T06:31:05Z</time>
</trkpt>
<trkpt lat="46.437170000" lon="-71.023550000">
<ele>0</ele>
<time>2026-09-04T06:31:06Z</time>
</trkpt>
<trkpt lat="46.437480000" lon="-71.023250000">
<ele>0</ele>
<time>2026-09-04T06:31:07Z</time>
</trkpt>
<trkpt lat="46.437610000" lon="-71.023090000">
<ele>0</ele>
<time>2026-09-04T06:31:08Z</time>
</trkpt>
<trkpt lat="46.437750000" lon="-71.022910000">
<ele>0</ele>
<time>2026-09-04T06:31:09Z</time>
</trkpt>
<trkpt lat="46.437870000" lon="-71.022770000">
<ele>0</ele>
<time>2026-09-04T06:31:10Z</time>
</trkpt>
<trkpt lat="46.437800000" lon="-71.022670000">
<ele>0</ele>
<time>2026-09-04T06:31:11Z</time>
</trkpt>
<trkpt lat="46.437800000" lon="-71.022670000">
<ele>0</ele>
<time>2026-09-04T06:31:12Z</time>
</trkpt>
<trkpt lat="46.436530000" lon="-71.020970000">
<ele>0</ele>
<time>2026-09-04T06:31:13Z</time>
</trkpt>
<trkpt lat="46.434990000" lon="-71.019020000">
<ele>0</ele>
<time>2026-09-04T06:31:14Z</time>
</trkpt>
<trkpt lat="46.434210000" lon="-71.017980000">
<ele>0</ele>
<time>2026-09-04T06:31:15Z</time>
</trkpt>
<trkpt lat="46.433360000" lon="-71.016810000">
<ele>0</ele>
<time>2026-09-04T06:31:16Z</time>
</trkpt>
<trkpt lat="46.432770000" lon="-71.015970000">
<ele>0</ele>
<time>2026-09-04T06:31:17Z</time>
</trkpt>
<trkpt lat="46.432010000" lon="-71.014810000">
<ele>0</ele>
<time>2026-09-04T06:31:18Z</time>
</trkpt>
<trkpt lat="46.431240000" lon="-71.013580000">
<ele>0</ele>
<time>2026-09-04T06:31:19Z</time>
</trkpt>
<trkpt lat="46.430190000" lon="-71.011830000">
<ele>0</ele>
<time>2026-09-04T06:31:20Z</time>
</trkpt>
<trkpt lat="46.429250000" lon="-71.010290000">
<ele>0</ele>
<time>2026-09-04T06:31:21Z</time>
</trkpt>
<trkpt lat="46.429110000" lon="-71.010110000">
<ele>0</ele>
<time>2026-09-04T06:31:22Z</time>
</trkpt>
<trkpt lat="46.428880000" lon="-71.009860000">
<ele>0</ele>
<time>2026-09-04T06:31:23Z</time>
</trkpt>
<trkpt lat="46.427830000" lon="-71.009070000">
<ele>0</ele>
<time>2026-09-04T06:31:24Z</time>
</trkpt>
<trkpt lat="46.427340000" lon="-71.008670000">
<ele>0</ele>
<time>2026-09-04T06:31:25Z</time>
</trkpt>
<trkpt lat="46.426990000" lon="-71.008320000">
<ele>0</ele>
<time>2026-09-04T06:31:26Z</time>
</trkpt>
<trkpt lat="46.426710000" lon="-71.007990000">
<ele>0</ele>
<time>2026-09-04T06:31:27Z</time>
</trkpt>
<trkpt lat="46.426430000" lon="-71.007580000">
<ele>0</ele>
<time>2026-09-04T06:31:28Z</time>
</trkpt>
<trkpt lat="46.426070000" lon="-71.006990000">
<ele>0</ele>
<time>2026-09-04T06:31:29Z</time>
</trkpt>
<trkpt lat="46.425850000" lon="-71.006510000">
<ele>0</ele>
<time>2026-09-04T06:31:30Z</time>
</trkpt>
<trkpt lat="46.425370000" lon="-71.005440000">
<ele>0</ele>
<time>2026-09-04T06:31:31Z</time>
</trkpt>
<trkpt lat="46.424930000" lon="-71.004440000">
<ele>0</ele>
<time>2026-09-04T06:31:32Z</time>
</trkpt>
<trkpt lat="46.424570000" lon="-71.003730000">
<ele>0</ele>
<time>2026-09-04T06:31:33Z</time>
</trkpt>
<trkpt lat="46.424270000" lon="-71.003190000">
<ele>0</ele>
<time>2026-09-04T06:31:34Z</time>
</trkpt>
<trkpt lat="46.423820000" lon="-71.002470000">
<ele>0</ele>
<time>2026-09-04T06:31:35Z</time>
</trkpt>
<trkpt lat="46.423250000" lon="-71.001600000">
<ele>0</ele>
<time>2026-09-04T06:31:36Z</time>
</trkpt>
<trkpt lat="46.422900000" lon="-71.001100000">
<ele>0</ele>
<time>2026-09-04T06:31:37Z</time>
</trkpt>
<trkpt lat="46.422490000" lon="-71.000580000">
<ele>0</ele>
<time>2026-09-04T06:31:38Z</time>
</trkpt>
<trkpt lat="46.421580000" lon="-70.999510000">
<ele>0</ele>
<time>2026-09-04T06:31:39Z</time>
</trkpt>
<trkpt lat="46.420430000" lon="-70.998200000">
<ele>0</ele>
<time>2026-09-04T06:31:40Z</time>
</trkpt>
<trkpt lat="46.420430000" lon="-70.998200000">
<ele>0</ele>
<time>2026-09-04T06:31:41Z</time>
</trkpt>
<trkpt lat="46.419090000" lon="-70.996670000">
<ele>0</ele>
<time>2026-09-04T06:31:42Z</time>
</trkpt>
<trkpt lat="46.416840000" lon="-70.994030000">
<ele>0</ele>
<time>2026-09-04T06:31:43Z</time>
</trkpt>
<trkpt lat="46.416310000" lon="-70.993400000">
<ele>0</ele>
<time>2026-09-04T06:31:44Z</time>
</trkpt>
<trkpt lat="46.415620000" lon="-70.992590000">
<ele>0</ele>
<time>2026-09-04T06:31:45Z</time>
</trkpt>
<trkpt lat="46.415510000" lon="-70.992420000">
<ele>0</ele>
<time>2026-09-04T06:31:46Z</time>
</trkpt>
<trkpt lat="46.415390000" lon="-70.992070000">
<ele>0</ele>
<time>2026-09-04T06:31:47Z</time>
</trkpt>
<trkpt lat="46.415370000" lon="-70.991760000">
<ele>0</ele>
<time>2026-09-04T06:31:48Z</time>
</trkpt>
<trkpt lat="46.415370000" lon="-70.991730000">
<ele>0</ele>
<time>2026-09-04T06:31:49Z</time>
</trkpt>
<trkpt lat="46.415380000" lon="-70.991650000">
<ele>0</ele>
<time>2026-09-04T06:31:50Z</time>
</trkpt>
<trkpt lat="46.415390000" lon="-70.991600000">
<ele>0</ele>
<time>2026-09-04T06:31:51Z</time>
</trkpt>
<trkpt lat="46.415930000" lon="-70.992160000">
<ele>0</ele>
<time>2026-09-04T06:31:52Z</time>
</trkpt>
<trkpt lat="46.417130000" lon="-70.993430000">
<ele>0</ele>
<time>2026-09-04T06:31:53Z</time>
</trkpt>
<trkpt lat="46.417130000" lon="-70.993430000">
<ele>0</ele>
<time>2026-09-04T06:31:54Z</time>
</trkpt>
<trkpt lat="46.417990000" lon="-70.994310000">
<ele>0</ele>
<time>2026-09-04T06:31:55Z</time>
</trkpt>
<trkpt lat="46.419420000" lon="-70.995830000">
<ele>0</ele>
<time>2026-09-04T06:31:56Z</time>
</trkpt>
<trkpt lat="46.421620000" lon="-70.998110000">
<ele>0</ele>
<time>2026-09-04T06:31:57Z</time>
</trkpt>
<trkpt lat="46.421950000" lon="-70.998480000">
<ele>0</ele>
<time>2026-09-04T06:31:58Z</time>
</trkpt>
<trkpt lat="46.422090000" lon="-70.998770000">
<ele>0</ele>
<time>2026-09-04T06:31:59Z</time>
</trkpt>
<trkpt lat="46.422830000" lon="-70.999640000">
<ele>0</ele>
<time>2026-09-04T06:32:00Z</time>
</trkpt>
<trkpt lat="46.423100000" lon="-70.999990000">
<ele>0</ele>
<time>2026-09-04T06:32:01Z</time>
</trkpt>
<trkpt lat="46.423690000" lon="-71.000790000">
<ele>0</ele>
<time>2026-09-04T06:32:02Z</time>
</trkpt>
<trkpt lat="46.425020000" lon="-71.002600000">
<ele>0</ele>
<time>2026-09-04T06:32:03Z</time>
</trkpt>
<trkpt lat="46.425020000" lon="-71.002600000">
<ele>0</ele>
<time>2026-09-04T06:32:04Z</time>
</trkpt>
<trkpt lat="46.426300000" lon="-71.004310000">
<ele>0</ele>
<time>2026-09-04T06:32:05Z</time>
</trkpt>
<trkpt lat="46.427640000" lon="-71.006280000">
<ele>0</ele>
<time>2026-09-04T06:32:06Z</time>
</trkpt>
<trkpt lat="46.428560000" lon="-71.007530000">
<ele>0</ele>
<time>2026-09-04T06:32:07Z</time>
</trkpt>
<trkpt lat="46.429560000" lon="-71.008840000">
<ele>0</ele>
<time>2026-09-04T06:32:08Z</time>
</trkpt>
<trkpt lat="46.430350000" lon="-71.009910000">
<ele>0</ele>
<time>2026-09-04T06:32:09Z</time>
</trkpt>
<trkpt lat="46.432500000" lon="-71.012890000">
<ele>0</ele>
<time>2026-09-04T06:32:10Z</time>
</trkpt>
<trkpt lat="46.432820000" lon="-71.013320000">
<ele>0</ele>
<time>2026-09-04T06:32:11Z</time>
</trkpt>
<trkpt lat="46.432820000" lon="-71.013320000">
<ele>0</ele>
<time>2026-09-04T06:32:12Z</time>
</trkpt>
<trkpt lat="46.433610000" lon="-71.014380000">
<ele>0</ele>
<time>2026-09-04T06:32:13Z</time>
</trkpt>
<trkpt lat="46.433910000" lon="-71.014790000">
<ele>0</ele>
<time>2026-09-04T06:32:14Z</time>
</trkpt>
<trkpt lat="46.434180000" lon="-71.015140000">
<ele>0</ele>
<time>2026-09-04T06:32:15Z</time>
</trkpt>
<trkpt lat="46.435560000" lon="-71.016700000">
<ele>0</ele>
<time>2026-09-04T06:32:16Z</time>
</trkpt>
<trkpt lat="46.436280000" lon="-71.017410000">
<ele>0</ele>
<time>2026-09-04T06:32:17Z</time>
</trkpt>
<trkpt lat="46.437150000" lon="-71.018330000">
<ele>0</ele>
<time>2026-09-04T06:32:18Z</time>
</trkpt>
<trkpt lat="46.438700000" lon="-71.019970000">
<ele>0</ele>
<time>2026-09-04T06:32:19Z</time>
</trkpt>
<trkpt lat="46.438860000" lon="-71.020140000">
<ele>0</ele>
<time>2026-09-04T06:32:20Z</time>
</trkpt>
<trkpt lat="46.438860000" lon="-71.020140000">
<ele>0</ele>
<time>2026-09-04T06:32:21Z</time>
</trkpt>
<trkpt lat="46.439080000" lon="-71.020380000">
<ele>0</ele>
<time>2026-09-04T06:32:22Z</time>
</trkpt>
<trkpt lat="46.439090000" lon="-71.020420000">
<ele>0</ele>
<time>2026-09-04T06:32:23Z</time>
</trkpt>
<trkpt lat="46.439060000" lon="-71.020500000">
<ele>0</ele>
<time>2026-09-04T06:32:24Z</time>
</trkpt>
<trkpt lat="46.439060000" lon="-71.020560000">
<ele>0</ele>
<time>2026-09-04T06:32:25Z</time>
</trkpt>
<trkpt lat="46.439790000" lon="-71.021420000">
<ele>0</ele>
<time>2026-09-04T06:32:26Z</time>
</trkpt>
<trkpt lat="46.440650000" lon="-71.022400000">
<ele>0</ele>
<time>2026-09-04T06:32:27Z</time>
</trkpt>
<trkpt lat="46.440830000" lon="-71.022470000">
<ele>0</ele>
<time>2026-09-04T06:32:28Z</time>
</trkpt>
<trkpt lat="46.441040000" lon="-71.022670000">
<ele>0</ele>
<time>2026-09-04T06:32:29Z</time>
</trkpt>
<trkpt lat="46.441640000" lon="-71.023300000">
<ele>0</ele>
<time>2026-09-04T06:32:30Z</time>
</trkpt>
<trkpt lat="46.443030000" lon="-71.024790000">
<ele>0</ele>
<time>2026-09-04T06:32:31Z</time>
</trkpt>
<trkpt lat="46.445790000" lon="-71.027720000">
<ele>0</ele>
<time>2026-09-04T06:32:32Z</time>
</trkpt>
<trkpt lat="46.447930000" lon="-71.029980000">
<ele>0</ele>
<time>2026-09-04T06:32:33Z</time>
</trkpt>
<trkpt lat="46.447930000" lon="-71.029980000">
<ele>0</ele>
<time>2026-09-04T06:32:34Z</time>
</trkpt>
<trkpt lat="46.452600000" lon="-71.034910000">
<ele>0</ele>
<time>2026-09-04T06:32:35Z</time>
</trkpt>
<trkpt lat="46.453530000" lon="-71.035960000">
<ele>0</ele>
<time>2026-09-04T06:32:36Z</time>
</trkpt>
<trkpt lat="46.453530000" lon="-71.035960000">
<ele>0</ele>
<time>2026-09-04T06:32:37Z</time>
</trkpt>
<trkpt lat="46.454240000" lon="-71.036760000">
<ele>0</ele>
<time>2026-09-04T06:32:38Z</time>
</trkpt>
<trkpt lat="46.454260000" lon="-71.036740000">
<ele>0</ele>
<time>2026-09-04T06:32:39Z</time>
</trkpt>
<trkpt lat="46.454360000" lon="-71.036560000">
<ele>0</ele>
<time>2026-09-04T06:32:40Z</time>
</trkpt>
<trkpt lat="46.454400000" lon="-71.036550000">
<ele>0</ele>
<time>2026-09-04T06:32:41Z</time>
</trkpt>
<trkpt lat="46.455110000" lon="-71.037330000">
<ele>0</ele>
<time>2026-09-04T06:32:42Z</time>
</trkpt>
<trkpt lat="46.456110000" lon="-71.038440000">
<ele>0</ele>
<time>2026-09-04T06:32:43Z</time>
</trkpt>
<trkpt lat="46.456720000" lon="-71.039080000">
<ele>0</ele>
<time>2026-09-04T06:32:44Z</time>
</trkpt>
<trkpt lat="46.456720000" lon="-71.039080000">
<ele>0</ele>
<time>2026-09-04T06:32:45Z</time>
</trkpt>
<trkpt lat="46.457160000" lon="-71.039450000">
<ele>0</ele>
<time>2026-09-04T06:32:46Z</time>
</trkpt>
<trkpt lat="46.457470000" lon="-71.039700000">
<ele>0</ele>
<time>2026-09-04T06:32:47Z</time>
</trkpt>
<trkpt lat="46.457920000" lon="-71.039980000">
<ele>0</ele>
<time>2026-09-04T06:32:48Z</time>
</trkpt>
<trkpt lat="46.458480000" lon="-71.040260000">
<ele>0</ele>
<time>2026-09-04T06:32:49Z</time>
</trkpt>
<trkpt lat="46.460340000" lon="-71.041220000">
<ele>0</ele>
<time>2026-09-04T06:32:50Z</time>
</trkpt>
<trkpt lat="46.464740000" lon="-71.043520000">
<ele>0</ele>
<time>2026-09-04T06:32:51Z</time>
</trkpt>
<trkpt lat="46.465210000" lon="-71.043680000">
<ele>0</ele>
<time>2026-09-04T06:32:52Z</time>
</trkpt>
<trkpt lat="46.465320000" lon="-71.043800000">
<ele>0</ele>
<time>2026-09-04T06:32:53Z</time>
</trkpt>
<trkpt lat="46.465480000" lon="-71.043900000">
<ele>0</ele>
<time>2026-09-04T06:32:54Z</time>
</trkpt>
<trkpt lat="46.466480000" lon="-71.044410000">
<ele>0</ele>
<time>2026-09-04T06:32:55Z</time>
</trkpt>
<trkpt lat="46.466660000" lon="-71.044450000">
<ele>0</ele>
<time>2026-09-04T06:32:56Z</time>
</trkpt>
<trkpt lat="46.468010000" lon="-71.045160000">
<ele>0</ele>
<time>2026-09-04T06:32:57Z</time>
</trkpt>
<trkpt lat="46.469680000" lon="-71.046050000">
<ele>0</ele>
<time>2026-09-04T06:32:58Z</time>
</trkpt>
<trkpt lat="46.469830000" lon="-71.046050000">
<ele>0</ele>
<time>2026-09-04T06:32:59Z</time>
</trkpt>
<trkpt lat="46.470000000" lon="-71.046010000">
<ele>0</ele>
<time>2026-09-04T06:33:00Z</time>
</trkpt>
<trkpt lat="46.470340000" lon="-71.046200000">
<ele>0</ele>
<time>2026-09-04T06:33:01Z</time>
</trkpt>
<trkpt lat="46.471180000" lon="-71.046660000">
<ele>0</ele>
<time>2026-09-04T06:33:02Z</time>
</trkpt>
<trkpt lat="46.472190000" lon="-71.047210000">
<ele>0</ele>
<time>2026-09-04T06:33:03Z</time>
</trkpt>
<trkpt lat="46.473060000" lon="-71.047650000">
<ele>0</ele>
<time>2026-09-04T06:33:04Z</time>
</trkpt>
<trkpt lat="46.473080000" lon="-71.047810000">
<ele>0</ele>
<time>2026-09-04T06:33:05Z</time>
</trkpt>
<trkpt lat="46.473040000" lon="-71.048010000">
<ele>0</ele>
<time>2026-09-04T06:33:06Z</time>
</trkpt>
<trkpt lat="46.473060000" lon="-71.048070000">
<ele>0</ele>
<time>2026-09-04T06:33:07Z</time>
</trkpt>
<trkpt lat="46.473460000" lon="-71.048270000">
<ele>0</ele>
<time>2026-09-04T06:33:08Z</time>
</trkpt>
<trkpt lat="46.473460000" lon="-71.048270000">
<ele>0</ele>
<time>2026-09-04T06:33:09Z</time>
</trkpt>
<trkpt lat="46.473970000" lon="-71.048550000">
<ele>0</ele>
<time>2026-09-04T06:33:10Z</time>
</trkpt>
<trkpt lat="46.475600000" lon="-71.049440000">
<ele>0</ele>
<time>2026-09-04T06:33:11Z</time>
</trkpt>
<trkpt lat="46.476290000" lon="-71.049970000">
<ele>0</ele>
<time>2026-09-04T06:33:12Z</time>
</trkpt>
<trkpt lat="46.476680000" lon="-71.050270000">
<ele>0</ele>
<time>2026-09-04T06:33:13Z</time>
</trkpt>
<trkpt lat="46.478000000" lon="-71.051410000">
<ele>0</ele>
<time>2026-09-04T06:33:14Z</time>
</trkpt>
<trkpt lat="46.479240000" lon="-71.052470000">
<ele>0</ele>
<time>2026-09-04T06:33:15Z</time>
</trkpt>
<trkpt lat="46.480000000" lon="-71.053150000">
<ele>0</ele>
<time>2026-09-04T06:33:16Z</time>
</trkpt>
<trkpt lat="46.480680000" lon="-71.053800000">
<ele>0</ele>
<time>2026-09-04T06:33:17Z</time>
</trkpt>
<trkpt lat="46.481300000" lon="-71.054530000">
<ele>0</ele>
<time>2026-09-04T06:33:18Z</time>
</trkpt>
<trkpt lat="46.481800000" lon="-71.055290000">
<ele>0</ele>
<time>2026-09-04T06:33:19Z</time>
</trkpt>
<trkpt lat="46.482670000" lon="-71.056610000">
<ele>0</ele>
<time>2026-09-04T06:33:20Z</time>
</trkpt>
<trkpt lat="46.483440000" lon="-71.057780000">
<ele>0</ele>
<time>2026-09-04T06:33:21Z</time>
</trkpt>
<trkpt lat="46.484020000" lon="-71.058720000">
<ele>0</ele>
<time>2026-09-04T06:33:22Z</time>
</trkpt>
<trkpt lat="46.484610000" lon="-71.059710000">
<ele>0</ele>
<time>2026-09-04T06:33:23Z</time>
</trkpt>
<trkpt lat="46.485440000" lon="-71.061070000">
<ele>0</ele>
<time>2026-09-04T06:33:24Z</time>
</trkpt>
<trkpt lat="46.486750000" lon="-71.063110000">
<ele>0</ele>
<time>2026-09-04T06:33:25Z</time>
</trkpt>
<trkpt lat="46.487660000" lon="-71.064540000">
<ele>0</ele>
<time>2026-09-04T06:33:26Z</time>
</trkpt>
<trkpt lat="46.488310000" lon="-71.065730000">
<ele>0</ele>
<time>2026-09-04T06:33:27Z</time>
</trkpt>
<trkpt lat="46.488830000" lon="-71.066810000">
<ele>0</ele>
<time>2026-09-04T06:33:28Z</time>
</trkpt>
<trkpt lat="46.489060000" lon="-71.067270000">
<ele>0</ele>
<time>2026-09-04T06:33:29Z</time>
</trkpt>
<trkpt lat="46.489170000" lon="-71.067400000">
<ele>0</ele>
<time>2026-09-04T06:33:30Z</time>
</trkpt>
<trkpt lat="46.489730000" lon="-71.068070000">
<ele>0</ele>
<time>2026-09-04T06:33:31Z</time>
</trkpt>
<trkpt lat="46.490230000" lon="-71.068360000">
<ele>0</ele>
<time>2026-09-04T06:33:32Z</time>
</trkpt>
<trkpt lat="46.490480000" lon="-71.068500000">
<ele>0</ele>
<time>2026-09-04T06:33:33Z</time>
</trkpt>
<trkpt lat="46.490570000" lon="-71.068510000">
<ele>0</ele>
<time>2026-09-04T06:33:34Z</time>
</trkpt>
<trkpt lat="46.490890000" lon="-71.068570000">
<ele>0</ele>
<time>2026-09-04T06:33:35Z</time>
</trkpt>
<trkpt lat="46.491440000" lon="-71.068560000">
<ele>0</ele>
<time>2026-09-04T06:33:36Z</time>
</trkpt>
<trkpt lat="46.492010000" lon="-71.068430000">
<ele>0</ele>
<time>2026-09-04T06:33:37Z</time>
</trkpt>
<trkpt lat="46.493160000" lon="-71.068220000">
<ele>0</ele>
<time>2026-09-04T06:33:38Z</time>
</trkpt>
<trkpt lat="46.495360000" lon="-71.067790000">
<ele>0</ele>
<time>2026-09-04T06:33:39Z</time>
</trkpt>
<trkpt lat="46.495940000" lon="-71.067650000">
<ele>0</ele>
<time>2026-09-04T06:33:40Z</time>
</trkpt>
<trkpt lat="46.497010000" lon="-71.067460000">
<ele>0</ele>
<time>2026-09-04T06:33:41Z</time>
</trkpt>
<trkpt lat="46.497310000" lon="-71.067440000">
<ele>0</ele>
<time>2026-09-04T06:33:42Z</time>
</trkpt>
<trkpt lat="46.497310000" lon="-71.067440000">
<ele>0</ele>
<time>2026-09-04T06:33:43Z</time>
</trkpt>
<trkpt lat="46.497500000" lon="-71.067450000">
<ele>0</ele>
<time>2026-09-04T06:33:44Z</time>
</trkpt>
<trkpt lat="46.498720000" lon="-71.067720000">
<ele>0</ele>
<time>2026-09-04T06:33:45Z</time>
</trkpt>
<trkpt lat="46.500790000" lon="-71.068200000">
<ele>0</ele>
<time>2026-09-04T06:33:46Z</time>
</trkpt>
<trkpt lat="46.502200000" lon="-71.068520000">
<ele>0</ele>
<time>2026-09-04T06:33:47Z</time>
</trkpt>
<trkpt lat="46.502940000" lon="-71.068720000">
<ele>0</ele>
<time>2026-09-04T06:33:48Z</time>
</trkpt>
<trkpt lat="46.504280000" lon="-71.068940000">
<ele>0</ele>
<time>2026-09-04T06:33:49Z</time>
</trkpt>
<trkpt lat="46.504310000" lon="-71.068970000">
<ele>0</ele>
<time>2026-09-04T06:33:50Z</time>
</trkpt>
<trkpt lat="46.504330000" lon="-71.069040000">
<ele>0</ele>
<time>2026-09-04T06:33:51Z</time>
</trkpt>
<trkpt lat="46.504340000" lon="-71.069110000">
<ele>0</ele>
<time>2026-09-04T06:33:52Z</time>
</trkpt>
<trkpt lat="46.504340000" lon="-71.069110000">
<ele>0</ele>
<time>2026-09-04T06:33:53Z</time>
</trkpt>
<trkpt lat="46.504360000" lon="-71.069180000">
<ele>0</ele>
<time>2026-09-04T06:33:54Z</time>
</trkpt>
<trkpt lat="46.504410000" lon="-71.069270000">
<ele>0</ele>
<time>2026-09-04T06:33:55Z</time>
</trkpt>
<trkpt lat="46.503680000" lon="-71.070340000">
<ele>0</ele>
<time>2026-09-04T06:33:56Z</time>
</trkpt>
<trkpt lat="46.503490000" lon="-71.070680000">
<ele>0</ele>
<time>2026-09-04T06:33:57Z</time>
</trkpt>
<trkpt lat="46.503490000" lon="-71.070680000">
<ele>0</ele>
<time>2026-09-04T06:33:58Z</time>
</trkpt>
<trkpt lat="46.503400000" lon="-71.070880000">
<ele>0</ele>
<time>2026-09-04T06:33:59Z</time>
</trkpt>
<trkpt lat="46.503690000" lon="-71.071120000">
<ele>0</ele>
<time>2026-09-04T06:34:00Z</time>
</trkpt>
<trkpt lat="46.504130000" lon="-71.071440000">
<ele>0</ele>
<time>2026-09-04T06:34:01Z</time>
</trkpt>
<trkpt lat="46.504590000" lon="-71.071820000">
<ele>0</ele>
<time>2026-09-04T06:34:02Z</time>
</trkpt>
<trkpt lat="46.504710000" lon="-71.071940000">
<ele>0</ele>
<time>2026-09-04T06:34:03Z</time>
</trkpt>
<trkpt lat="46.504710000" lon="-71.071940000">
<ele>0</ele>
<time>2026-09-04T06:34:04Z</time>
</trkpt>
<trkpt lat="46.504750000" lon="-71.071990000">
<ele>0</ele>
<time>2026-09-04T06:34:05Z</time>
</trkpt>
<trkpt lat="46.504750000" lon="-71.071990000">
<ele>0</ele>
<time>2026-09-04T06:34:06Z</time>
</trkpt>
<trkpt lat="46.504720000" lon="-71.071960000">
<ele>0</ele>
<time>2026-09-04T06:34:07Z</time>
</trkpt>
<trkpt lat="46.504720000" lon="-71.071960000">
<ele>0</ele>
<time>2026-09-04T06:34:08Z</time>
</trkpt>
<trkpt lat="46.504440000" lon="-71.071700000">
<ele>0</ele>
<time>2026-09-04T06:34:09Z</time>
</trkpt>
<trkpt lat="46.504130000" lon="-71.071440000">
<ele>0</ele>
<time>2026-09-04T06:34:10Z</time>
</trkpt>
<trkpt lat="46.504080000" lon="-71.071520000">
<ele>0</ele>
<time>2026-09-04T06:34:11Z</time>
</trkpt>
<trkpt lat="46.504080000" lon="-71.071520000">
<ele>0</ele>
<time>2026-09-04T06:34:12Z</time>
</trkpt>
<trkpt lat="46.503160000" lon="-71.072980000">
<ele>0</ele>
<time>2026-09-04T06:34:13Z</time>
</trkpt>
<trkpt lat="46.502550000" lon="-71.073940000">
<ele>0</ele>
<time>2026-09-04T06:34:14Z</time>
</trkpt>
<trkpt lat="46.502420000" lon="-71.074120000">
<ele>0</ele>
<time>2026-09-04T06:34:15Z</time>
</trkpt>
<trkpt lat="46.502130000" lon="-71.074420000">
<ele>0</ele>
<time>2026-09-04T06:34:16Z</time>
</trkpt>
<trkpt lat="46.501970000" lon="-71.074550000">
<ele>0</ele>
<time>2026-09-04T06:34:17Z</time>
</trkpt>
<trkpt lat="46.501480000" lon="-71.074880000">
<ele>0</ele>
<time>2026-09-04T06:34:18Z</time>
</trkpt>
<trkpt lat="46.500300000" lon="-71.075520000">
<ele>0</ele>
<time>2026-09-04T06:34:19Z</time>
</trkpt>
<trkpt lat="46.499460000" lon="-71.076060000">
<ele>0</ele>
<time>2026-09-04T06:34:20Z</time>
</trkpt>
<trkpt lat="46.499460000" lon="-71.076060000">
<ele>0</ele>
<time>2026-09-04T06:34:21Z</time>
</trkpt>
<trkpt lat="46.499140000" lon="-71.076330000">
<ele>0</ele>
<time>2026-09-04T06:34:22Z</time>
</trkpt>
<trkpt lat="46.498810000" lon="-71.076690000">
<ele>0</ele>
<time>2026-09-04T06:34:23Z</time>
</trkpt>
<trkpt lat="46.498510000" lon="-71.077110000">
<ele>0</ele>
<time>2026-09-04T06:34:24Z</time>
</trkpt>
<trkpt lat="46.498380000" lon="-71.077320000">
<ele>0</ele>
<time>2026-09-04T06:34:25Z</time>
</trkpt>
<trkpt lat="46.498060000" lon="-71.077900000">
<ele>0</ele>
<time>2026-09-04T06:34:26Z</time>
</trkpt>
<trkpt lat="46.497780000" lon="-71.078630000">
<ele>0</ele>
<time>2026-09-04T06:34:27Z</time>
</trkpt>
<trkpt lat="46.497480000" lon="-71.079520000">
<ele>0</ele>
<time>2026-09-04T06:34:28Z</time>
</trkpt>
<trkpt lat="46.497350000" lon="-71.081500000">
<ele>0</ele>
<time>2026-09-04T06:34:29Z</time>
</trkpt>
<trkpt lat="46.497320000" lon="-71.082010000">
<ele>0</ele>
<time>2026-09-04T06:34:30Z</time>
</trkpt>
<trkpt lat="46.497320000" lon="-71.082010000">
<ele>0</ele>
<time>2026-09-04T06:34:31Z</time>
</trkpt>
<trkpt lat="46.497140000" lon="-71.084800000">
<ele>0</ele>
<time>2026-09-04T06:34:32Z</time>
</trkpt>
<trkpt lat="46.497140000" lon="-71.085280000">
<ele>0</ele>
<time>2026-09-04T06:34:33Z</time>
</trkpt>
<trkpt lat="46.497180000" lon="-71.085760000">
<ele>0</ele>
<time>2026-09-04T06:34:34Z</time>
</trkpt>
<trkpt lat="46.497280000" lon="-71.086320000">
<ele>0</ele>
<time>2026-09-04T06:34:35Z</time>
</trkpt>
<trkpt lat="46.497400000" lon="-71.086770000">
<ele>0</ele>
<time>2026-09-04T06:34:36Z</time>
</trkpt>
<trkpt lat="46.497570000" lon="-71.087280000">
<ele>0</ele>
<time>2026-09-04T06:34:37Z</time>
</trkpt>
<trkpt lat="46.498420000" lon="-71.089810000">
<ele>0</ele>
<time>2026-09-04T06:34:38Z</time>
</trkpt>
<trkpt lat="46.499040000" lon="-71.092010000">
<ele>0</ele>
<time>2026-09-04T06:34:39Z</time>
</trkpt>
<trkpt lat="46.499290000" lon="-71.093000000">
<ele>0</ele>
<time>2026-09-04T06:34:40Z</time>
</trkpt>
<trkpt lat="46.499540000" lon="-71.094220000">
<ele>0</ele>
<time>2026-09-04T06:34:41Z</time>
</trkpt>
<trkpt lat="46.499920000" lon="-71.096630000">
<ele>0</ele>
<time>2026-09-04T06:34:42Z</time>
</trkpt>
<trkpt lat="46.499920000" lon="-71.096630000">
<ele>0</ele>
<time>2026-09-04T06:34:43Z</time>
</trkpt>
<trkpt lat="46.500040000" lon="-71.097370000">
<ele>0</ele>
<time>2026-09-04T06:34:44Z</time>
</trkpt>
<trkpt lat="46.500230000" lon="-71.098260000">
<ele>0</ele>
<time>2026-09-04T06:34:45Z</time>
</trkpt>
<trkpt lat="46.500500000" lon="-71.099240000">
<ele>0</ele>
<time>2026-09-04T06:34:46Z</time>
</trkpt>
<trkpt lat="46.500560000" lon="-71.099420000">
<ele>0</ele>
<time>2026-09-04T06:34:47Z</time>
</trkpt>
<trkpt lat="46.500950000" lon="-71.100430000">
<ele>0</ele>
<time>2026-09-04T06:34:48Z</time>
</trkpt>
<trkpt lat="46.501150000" lon="-71.100880000">
<ele>0</ele>
<time>2026-09-04T06:34:49Z</time>
</trkpt>
<trkpt lat="46.501350000" lon="-71.101280000">
<ele>0</ele>
<time>2026-09-04T06:34:50Z</time>
</trkpt>
<trkpt lat="46.501810000" lon="-71.102080000">
<ele>0</ele>
<time>2026-09-04T06:34:51Z</time>
</trkpt>
<trkpt lat="46.502250000" lon="-71.102700000">
<ele>0</ele>
<time>2026-09-04T06:34:52Z</time>
</trkpt>
<trkpt lat="46.503560000" lon="-71.104500000">
<ele>0</ele>
<time>2026-09-04T06:34:53Z</time>
</trkpt>
<trkpt lat="46.504800000" lon="-71.106190000">
<ele>0</ele>
<time>2026-09-04T06:34:54Z</time>
</trkpt>
<trkpt lat="46.504800000" lon="-71.106190000">
<ele>0</ele>
<time>2026-09-04T06:34:55Z</time>
</trkpt>
<trkpt lat="46.505960000" lon="-71.107740000">
<ele>0</ele>
<time>2026-09-04T06:34:56Z</time>
</trkpt>
<trkpt lat="46.506960000" lon="-71.109090000">
<ele>0</ele>
<time>2026-09-04T06:34:57Z</time>
</trkpt>
<trkpt lat="46.507140000" lon="-71.109290000">
<ele>0</ele>
<time>2026-09-04T06:34:58Z</time>
</trkpt>
<trkpt lat="46.507450000" lon="-71.109620000">
<ele>0</ele>
<time>2026-09-04T06:34:59Z</time>
</trkpt>
<trkpt lat="46.508200000" lon="-71.110340000">
<ele>0</ele>
<time>2026-09-04T06:35:00Z</time>
</trkpt>
<trkpt lat="46.508730000" lon="-71.110860000">
<ele>0</ele>
<time>2026-09-04T06:35:01Z</time>
</trkpt>
<trkpt lat="46.508730000" lon="-71.110860000">
<ele>0</ele>
<time>2026-09-04T06:35:02Z</time>
</trkpt>
<trkpt lat="46.509120000" lon="-71.111240000">
<ele>0</ele>
<time>2026-09-04T06:35:03Z</time>
</trkpt>
<trkpt lat="46.509870000" lon="-71.112100000">
<ele>0</ele>
<time>2026-09-04T06:35:04Z</time>
</trkpt>
<trkpt lat="46.510720000" lon="-71.113270000">
<ele>0</ele>
<time>2026-09-04T06:35:05Z</time>
</trkpt>
<trkpt lat="46.511250000" lon="-71.114030000">
<ele>0</ele>
<time>2026-09-04T06:35:06Z</time>
</trkpt>
<trkpt lat="46.513680000" lon="-71.117520000">
<ele>0</ele>
<time>2026-09-04T06:35:07Z</time>
</trkpt>
<trkpt lat="46.514610000" lon="-71.118710000">
<ele>0</ele>
<time>2026-09-04T06:35:08Z</time>
</trkpt>
<trkpt lat="46.514610000" lon="-71.118710000">
<ele>0</ele>
<time>2026-09-04T06:35:09Z</time>
</trkpt>
<trkpt lat="46.515430000" lon="-71.119800000">
<ele>0</ele>
<time>2026-09-04T06:35:10Z</time>
</trkpt>
<trkpt lat="46.516920000" lon="-71.121770000">
<ele>0</ele>
<time>2026-09-04T06:35:11Z</time>
</trkpt>
<trkpt lat="46.518950000" lon="-71.124460000">
<ele>0</ele>
<time>2026-09-04T06:35:12Z</time>
</trkpt>
<trkpt lat="46.518960000" lon="-71.124470000">
<ele>0</ele>
<time>2026-09-04T06:35:13Z</time>
</trkpt>
<trkpt lat="46.518960000" lon="-71.124470000">
<ele>0</ele>
<time>2026-09-04T06:35:14Z</time>
</trkpt>
<trkpt lat="46.526400000" lon="-71.134330000">
<ele>0</ele>
<time>2026-09-04T06:35:15Z</time>
</trkpt>
<trkpt lat="46.526400000" lon="-71.134330000">
<ele>0</ele>
<time>2026-09-04T06:35:16Z</time>
</trkpt>
<trkpt lat="46.527980000" lon="-71.136440000">
<ele>0</ele>
<time>2026-09-04T06:35:17Z</time>
</trkpt>
<trkpt lat="46.529770000" lon="-71.138800000">
<ele>0</ele>
<time>2026-09-04T06:35:18Z</time>
</trkpt>
<trkpt lat="46.530680000" lon="-71.140060000">
<ele>0</ele>
<time>2026-09-04T06:35:19Z</time>
</trkpt>
<trkpt lat="46.530980000" lon="-71.140520000">
<ele>0</ele>
<time>2026-09-04T06:35:20Z</time>
</trkpt>
<trkpt lat="46.531380000" lon="-71.141240000">
<ele>0</ele>
<time>2026-09-04T06:35:21Z</time>
</trkpt>
<trkpt lat="46.531630000" lon="-71.141800000">
<ele>0</ele>
<time>2026-09-04T06:35:22Z</time>
</trkpt>
<trkpt lat="46.531970000" lon="-71.142580000">
<ele>0</ele>
<time>2026-09-04T06:35:23Z</time>
</trkpt>
<trkpt lat="46.532140000" lon="-71.143090000">
<ele>0</ele>
<time>2026-09-04T06:35:24Z</time>
</trkpt>
<trkpt lat="46.532390000" lon="-71.143950000">
<ele>0</ele>
<time>2026-09-04T06:35:25Z</time>
</trkpt>
<trkpt lat="46.532480000" lon="-71.144330000">
<ele>0</ele>
<time>2026-09-04T06:35:26Z</time>
</trkpt>
<trkpt lat="46.532480000" lon="-71.144330000">
<ele>0</ele>
<time>2026-09-04T06:35:27Z</time>
</trkpt>
<trkpt lat="46.533620000" lon="-71.149060000">
<ele>0</ele>
<time>2026-09-04T06:35:28Z</time>
</trkpt>
<trkpt lat="46.533990000" lon="-71.150620000">
<ele>0</ele>
<time>2026-09-04T06:35:29Z</time>
</trkpt>
<trkpt lat="46.534210000" lon="-71.151240000">
<ele>0</ele>
<time>2026-09-04T06:35:30Z</time>
</trkpt>
<trkpt lat="46.534380000" lon="-71.151610000">
<ele>0</ele>
<time>2026-09-04T06:35:31Z</time>
</trkpt>
<trkpt lat="46.534520000" lon="-71.151880000">
<ele>0</ele>
<time>2026-09-04T06:35:32Z</time>
</trkpt>
<trkpt lat="46.534790000" lon="-71.152260000">
<ele>0</ele>
<time>2026-09-04T06:35:33Z</time>
</trkpt>
<trkpt lat="46.535160000" lon="-71.152680000">
<ele>0</ele>
<time>2026-09-04T06:35:34Z</time>
</trkpt>
<trkpt lat="46.535400000" lon="-71.152890000">
<ele>0</ele>
<time>2026-09-04T06:35:35Z</time>
</trkpt>
<trkpt lat="46.536180000" lon="-71.153410000">
<ele>0</ele>
<time>2026-09-04T06:35:36Z</time>
</trkpt>
<trkpt lat="46.537030000" lon="-71.153930000">
<ele>0</ele>
<time>2026-09-04T06:35:37Z</time>
</trkpt>
<trkpt lat="46.537810000" lon="-71.154340000">
<ele>0</ele>
<time>2026-09-04T06:35:38Z</time>
</trkpt>
<trkpt lat="46.538070000" lon="-71.154450000">
<ele>0</ele>
<time>2026-09-04T06:35:39Z</time>
</trkpt>
<trkpt lat="46.538330000" lon="-71.154510000">
<ele>0</ele>
<time>2026-09-04T06:35:40Z</time>
</trkpt>
<trkpt lat="46.538840000" lon="-71.154540000">
<ele>0</ele>
<time>2026-09-04T06:35:41Z</time>
</trkpt>
<trkpt lat="46.540150000" lon="-71.154520000">
<ele>0</ele>
<time>2026-09-04T06:35:42Z</time>
</trkpt>
<trkpt lat="46.540490000" lon="-71.154560000">
<ele>0</ele>
<time>2026-09-04T06:35:43Z</time>
</trkpt>
<trkpt lat="46.541060000" lon="-71.154710000">
<ele>0</ele>
<time>2026-09-04T06:35:44Z</time>
</trkpt>
<trkpt lat="46.541470000" lon="-71.154900000">
<ele>0</ele>
<time>2026-09-04T06:35:46Z</time>
</trkpt>
<trkpt lat="46.541870000" lon="-71.155150000">
<ele>0</ele>
<time>2026-09-04T06:35:47Z</time>
</trkpt>
<trkpt lat="46.542300000" lon="-71.155500000">
<ele>0</ele>
<time>2026-09-04T06:35:48Z</time>
</trkpt>
<trkpt lat="46.542560000" lon="-71.155750000">
<ele>0</ele>
<time>2026-09-04T06:35:49Z</time>
</trkpt>
<trkpt lat="46.543160000" lon="-71.156490000">
<ele>0</ele>
<time>2026-09-04T06:35:50Z</time>
</trkpt>
<trkpt lat="46.544510000" lon="-71.158390000">
<ele>0</ele>
<time>2026-09-04T06:35:51Z</time>
</trkpt>
<trkpt lat="46.544850000" lon="-71.158900000">
<ele>0</ele>
<time>2026-09-04T06:35:52Z</time>
</trkpt>
<trkpt lat="46.545150000" lon="-71.159520000">
<ele>0</ele>
<time>2026-09-04T06:35:53Z</time>
</trkpt>
<trkpt lat="46.545300000" lon="-71.159960000">
<ele>0</ele>
<time>2026-09-04T06:35:54Z</time>
</trkpt>
<trkpt lat="46.545660000" lon="-71.161230000">
<ele>0</ele>
<time>2026-09-04T06:35:55Z</time>
</trkpt>
<trkpt lat="46.546390000" lon="-71.163840000">
<ele>0</ele>
<time>2026-09-04T06:35:56Z</time>
</trkpt>
<trkpt lat="46.546730000" lon="-71.165070000">
<ele>0</ele>
<time>2026-09-04T06:35:57Z</time>
</trkpt>
<trkpt lat="46.547130000" lon="-71.166510000">
<ele>0</ele>
<time>2026-09-04T06:35:58Z</time>
</trkpt>
<trkpt lat="46.547270000" lon="-71.167140000">
<ele>0</ele>
<time>2026-09-04T06:35:59Z</time>
</trkpt>
<trkpt lat="46.547380000" lon="-71.168030000">
<ele>0</ele>
<time>2026-09-04T06:36:00Z</time>
</trkpt>
<trkpt lat="46.547390000" lon="-71.168600000">
<ele>0</ele>
<time>2026-09-04T06:36:01Z</time>
</trkpt>
<trkpt lat="46.547390000" lon="-71.168600000">
<ele>0</ele>
<time>2026-09-04T06:36:02Z</time>
</trkpt>
<trkpt lat="46.547380000" lon="-71.170560000">
<ele>0</ele>
<time>2026-09-04T06:36:03Z</time>
</trkpt>
<trkpt lat="46.547370000" lon="-71.170960000">
<ele>0</ele>
<time>2026-09-04T06:36:04Z</time>
</trkpt>
<trkpt lat="46.547310000" lon="-71.171590000">
<ele>0</ele>
<time>2026-09-04T06:36:05Z</time>
</trkpt>
<trkpt lat="46.547240000" lon="-71.172140000">
<ele>0</ele>
<time>2026-09-04T06:36:06Z</time>
</trkpt>
<trkpt lat="46.547040000" lon="-71.173230000">
<ele>0</ele>
<time>2026-09-04T06:36:07Z</time>
</trkpt>
<trkpt lat="46.546950000" lon="-71.173970000">
<ele>0</ele>
<time>2026-09-04T06:36:08Z</time>
</trkpt>
<trkpt lat="46.546940000" lon="-71.174310000">
<ele>0</ele>
<time>2026-09-04T06:36:09Z</time>
</trkpt>
<trkpt lat="46.546950000" lon="-71.174770000">
<ele>0</ele>
<time>2026-09-04T06:36:10Z</time>
</trkpt>
<trkpt lat="46.547020000" lon="-71.175510000">
<ele>0</ele>
<time>2026-09-04T06:36:11Z</time>
</trkpt>
<trkpt lat="46.547160000" lon="-71.176590000">
<ele>0</ele>
<time>2026-09-04T06:36:12Z</time>
</trkpt>
<trkpt lat="46.547590000" lon="-71.180090000">
<ele>0</ele>
<time>2026-09-04T06:36:13Z</time>
</trkpt>
<trkpt lat="46.547650000" lon="-71.181030000">
<ele>0</ele>
<time>2026-09-04T06:36:14Z</time>
</trkpt>
<trkpt lat="46.547660000" lon="-71.181760000">
<ele>0</ele>
<time>2026-09-04T06:36:15Z</time>
</trkpt>
<trkpt lat="46.547690000" lon="-71.183250000">
<ele>0</ele>
<time>2026-09-04T06:36:16Z</time>
</trkpt>
<trkpt lat="46.547740000" lon="-71.183740000">
<ele>0</ele>
<time>2026-09-04T06:36:17Z</time>
</trkpt>
<trkpt lat="46.547850000" lon="-71.184290000">
<ele>0</ele>
<time>2026-09-04T06:36:18Z</time>
</trkpt>
<trkpt lat="46.547980000" lon="-71.184750000">
<ele>0</ele>
<time>2026-09-04T06:36:19Z</time>
</trkpt>
<trkpt lat="46.548570000" lon="-71.186780000">
<ele>0</ele>
<time>2026-09-04T06:36:20Z</time>
</trkpt>
<trkpt lat="46.549120000" lon="-71.188680000">
<ele>0</ele>
<time>2026-09-04T06:36:21Z</time>
</trkpt>
<trkpt lat="46.549290000" lon="-71.189260000">
<ele>0</ele>
<time>2026-09-04T06:36:22Z</time>
</trkpt>
<trkpt lat="46.549760000" lon="-71.190560000">
<ele>0</ele>
<time>2026-09-04T06:36:23Z</time>
</trkpt>
<trkpt lat="46.550430000" lon="-71.192280000">
<ele>0</ele>
<time>2026-09-04T06:36:24Z</time>
</trkpt>
<trkpt lat="46.552630000" lon="-71.197770000">
<ele>0</ele>
<time>2026-09-04T06:36:25Z</time>
</trkpt>
<trkpt lat="46.553370000" lon="-71.199310000">
<ele>0</ele>
<time>2026-09-04T06:36:26Z</time>
</trkpt>
<trkpt lat="46.553680000" lon="-71.199920000">
<ele>0</ele>
<time>2026-09-04T06:36:27Z</time>
</trkpt>
<trkpt lat="46.554110000" lon="-71.200680000">
<ele>0</ele>
<time>2026-09-04T06:36:28Z</time>
</trkpt>
<trkpt lat="46.554480000" lon="-71.201180000">
<ele>0</ele>
<time>2026-09-04T06:36:29Z</time>
</trkpt>
<trkpt lat="46.555290000" lon="-71.201970000">
<ele>0</ele>
<time>2026-09-04T06:36:30Z</time>
</trkpt>
<trkpt lat="46.556180000" lon="-71.202760000">
<ele>0</ele>
<time>2026-09-04T06:36:31Z</time>
</trkpt>
<trkpt lat="46.557850000" lon="-71.204260000">
<ele>0</ele>
<time>2026-09-04T06:36:32Z</time>
</trkpt>
<trkpt lat="46.558440000" lon="-71.204800000">
<ele>0</ele>
<time>2026-09-04T06:36:33Z</time>
</trkpt>
<trkpt lat="46.559130000" lon="-71.205480000">
<ele>0</ele>
<time>2026-09-04T06:36:34Z</time>
</trkpt>
<trkpt lat="46.559490000" lon="-71.205890000">
<ele>0</ele>
<time>2026-09-04T06:36:35Z</time>
</trkpt>
<trkpt lat="46.560040000" lon="-71.206570000">
<ele>0</ele>
<time>2026-09-04T06:36:36Z</time>
</trkpt>
<trkpt lat="46.561520000" lon="-71.208480000">
<ele>0</ele>
<time>2026-09-04T06:36:37Z</time>
</trkpt>
<trkpt lat="46.561870000" lon="-71.208910000">
<ele>0</ele>
<time>2026-09-04T06:36:38Z</time>
</trkpt>
<trkpt lat="46.562320000" lon="-71.209530000">
<ele>0</ele>
<time>2026-09-04T06:36:39Z</time>
</trkpt>
<trkpt lat="46.562870000" lon="-71.210250000">
<ele>0</ele>
<time>2026-09-04T06:36:40Z</time>
</trkpt>
<trkpt lat="46.563340000" lon="-71.210730000">
<ele>0</ele>
<time>2026-09-04T06:36:41Z</time>
</trkpt>
<trkpt lat="46.563550000" lon="-71.210890000">
<ele>0</ele>
<time>2026-09-04T06:36:42Z</time>
</trkpt>
<trkpt lat="46.564290000" lon="-71.211290000">
<ele>0</ele>
<time>2026-09-04T06:36:43Z</time>
</trkpt>
<trkpt lat="46.566050000" lon="-71.212180000">
<ele>0</ele>
<time>2026-09-04T06:36:44Z</time>
</trkpt>
<trkpt lat="46.566750000" lon="-71.212540000">
<ele>0</ele>
<time>2026-09-04T06:36:45Z</time>
</trkpt>
<trkpt lat="46.566950000" lon="-71.212620000">
<ele>0</ele>
<time>2026-09-04T06:36:46Z</time>
</trkpt>
<trkpt lat="46.567280000" lon="-71.212710000">
<ele>0</ele>
<time>2026-09-04T06:36:47Z</time>
</trkpt>
<trkpt lat="46.567630000" lon="-71.212760000">
<ele>0</ele>
<time>2026-09-04T06:36:48Z</time>
</trkpt>
<trkpt lat="46.569260000" lon="-71.212750000">
<ele>0</ele>
<time>2026-09-04T06:36:49Z</time>
</trkpt>
<trkpt lat="46.569650000" lon="-71.212780000">
<ele>0</ele>
<time>2026-09-04T06:36:50Z</time>
</trkpt>
<trkpt lat="46.570000000" lon="-71.212840000">
<ele>0</ele>
<time>2026-09-04T06:36:51Z</time>
</trkpt>
<trkpt lat="46.570180000" lon="-71.212880000">
<ele>0</ele>
<time>2026-09-04T06:36:52Z</time>
</trkpt>
<trkpt lat="46.570560000" lon="-71.213010000">
<ele>0</ele>
<time>2026-09-04T06:36:53Z</time>
</trkpt>
<trkpt lat="46.571460000" lon="-71.213440000">
<ele>0</ele>
<time>2026-09-04T06:36:54Z</time>
</trkpt>
<trkpt lat="46.572270000" lon="-71.213840000">
<ele>0</ele>
<time>2026-09-04T06:36:55Z</time>
</trkpt>
<trkpt lat="46.573170000" lon="-71.214250000">
<ele>0</ele>
<time>2026-09-04T06:36:56Z</time>
</trkpt>
<trkpt lat="46.573320000" lon="-71.214290000">
<ele>0</ele>
<time>2026-09-04T06:36:57Z</time>
</trkpt>
<trkpt lat="46.573970000" lon="-71.214450000">
<ele>0</ele>
<time>2026-09-04T06:36:58Z</time>
</trkpt>
<trkpt lat="46.574810000" lon="-71.214590000">
<ele>0</ele>
<time>2026-09-04T06:36:59Z</time>
</trkpt>
<trkpt lat="46.575910000" lon="-71.214800000">
<ele>0</ele>
<time>2026-09-04T06:37:00Z</time>
</trkpt>
<trkpt lat="46.576610000" lon="-71.214970000">
<ele>0</ele>
<time>2026-09-04T06:37:01Z</time>
</trkpt>
<trkpt lat="46.577160000" lon="-71.215040000">
<ele>0</ele>
<time>2026-09-04T06:37:02Z</time>
</trkpt>
<trkpt lat="46.577480000" lon="-71.215050000">
<ele>0</ele>
<time>2026-09-04T06:37:03Z</time>
</trkpt>
<trkpt lat="46.577760000" lon="-71.215020000">
<ele>0</ele>
<time>2026-09-04T06:37:04Z</time>
</trkpt>
<trkpt lat="46.578200000" lon="-71.214950000">
<ele>0</ele>
<time>2026-09-04T06:37:05Z</time>
</trkpt>
<trkpt lat="46.579030000" lon="-71.214740000">
<ele>0</ele>
<time>2026-09-04T06:37:06Z</time>
</trkpt>
<trkpt lat="46.580080000" lon="-71.214480000">
<ele>0</ele>
<time>2026-09-04T06:37:07Z</time>
</trkpt>
<trkpt lat="46.580310000" lon="-71.214460000">
<ele>0</ele>
<time>2026-09-04T06:37:08Z</time>
</trkpt>
<trkpt lat="46.580760000" lon="-71.214500000">
<ele>0</ele>
<time>2026-09-04T06:37:09Z</time>
</trkpt>
<trkpt lat="46.581130000" lon="-71.214610000">
<ele>0</ele>
<time>2026-09-04T06:37:10Z</time>
</trkpt>
<trkpt lat="46.581340000" lon="-71.214690000">
<ele>0</ele>
<time>2026-09-04T06:37:11Z</time>
</trkpt>
<trkpt lat="46.581850000" lon="-71.214980000">
<ele>0</ele>
<time>2026-09-04T06:37:12Z</time>
</trkpt>
<trkpt lat="46.582470000" lon="-71.215370000">
<ele>0</ele>
<time>2026-09-04T06:37:13Z</time>
</trkpt>
<trkpt lat="46.582740000" lon="-71.215540000">
<ele>0</ele>
<time>2026-09-04T06:37:14Z</time>
</trkpt>
<trkpt lat="46.583300000" lon="-71.215880000">
<ele>0</ele>
<time>2026-09-04T06:37:15Z</time>
</trkpt>
<trkpt lat="46.583800000" lon="-71.216230000">
<ele>0</ele>
<time>2026-09-04T06:37:16Z</time>
</trkpt>
<trkpt lat="46.584820000" lon="-71.216920000">
<ele>0</ele>
<time>2026-09-04T06:37:17Z</time>
</trkpt>
<trkpt lat="46.584820000" lon="-71.216920000">
<ele>0</ele>
<time>2026-09-04T06:37:18Z</time>
</trkpt>
<trkpt lat="46.585320000" lon="-71.217290000">
<ele>0</ele>
<time>2026-09-04T06:37:19Z</time>
</trkpt>
<trkpt lat="46.585440000" lon="-71.217090000">
<ele>0</ele>
<time>2026-09-04T06:37:20Z</time>
</trkpt>
<trkpt lat="46.585440000" lon="-71.217090000">
<ele>0</ele>
<time>2026-09-04T06:37:21Z</time>
</trkpt>
<trkpt lat="46.585610000" lon="-71.216730000">
<ele>0</ele>
<time>2026-09-04T06:37:22Z</time>
</trkpt>
<trkpt lat="46.585790000" lon="-71.216200000">
<ele>0</ele>
<time>2026-09-04T06:37:23Z</time>
</trkpt>
<trkpt lat="46.586040000" lon="-71.215440000">
<ele>0</ele>
<time>2026-09-04T06:37:24Z</time>
</trkpt>
<trkpt lat="46.586700000" lon="-71.213640000">
<ele>0</ele>
<time>2026-09-04T06:37:25Z</time>
</trkpt>
<trkpt lat="46.586940000" lon="-71.213010000">
<ele>0</ele>
<time>2026-09-04T06:37:26Z</time>
</trkpt>
<trkpt lat="46.587420000" lon="-71.211690000">
<ele>0</ele>
<time>2026-09-04T06:37:27Z</time>
</trkpt>
<trkpt lat="46.587380000" lon="-71.211650000">
<ele>0</ele>
<time>2026-09-04T06:37:28Z</time>
</trkpt>
<trkpt lat="46.587380000" lon="-71.211650000">
<ele>0</ele>
<time>2026-09-04T06:37:29Z</time>
</trkpt>
<trkpt lat="46.587130000" lon="-71.211440000">
<ele>0</ele>
<time>2026-09-04T06:37:30Z</time>
</trkpt>
</trkseg>
</trk>
</gpx>
